<?xml version="1.0" encoding="UTF-8" standalone="no" ?>
<gpx xmlns="http://www.topografix.com/GPX/1/1" xmlns:xsi="http://www.w3.org/2001/XMLSchema-instance" xsi:schemaLocation="http://www.topografix.com/GPX/1/1 http://www.topografix.com/GPX/1/1/gpx.xsd" version="1.1" creator="VisuGPX - https://www.visugpx.com">
  <metadata>
    <name>Vélo du matin</name>
  </metadata>
  <trk>
    <name><![CDATA[Vélo du matin]]></name>
    <trkseg>
      <trkpt lat="49.44854" lon="1.0955">
        <ele>41.3</ele>
        <time>2021-10-22T04:27:04Z</time>
      </trkpt>
      <trkpt lat="49.44841" lon="1.09557">
        <ele>41.3</ele>
        <time>2021-10-22T04:27:06Z</time>
      </trkpt>
      <trkpt lat="49.44838" lon="1.09558">
        <ele>41.3</ele>
        <time>2021-10-22T04:27:08Z</time>
      </trkpt>
      <trkpt lat="49.44837" lon="1.09555">
        <ele>41.3</ele>
        <time>2021-10-22T04:27:09Z</time>
      </trkpt>
      <trkpt lat="49.44837" lon="1.09552">
        <ele>41.3</ele>
        <time>2021-10-22T04:27:10Z</time>
      </trkpt>
      <trkpt lat="49.44838" lon="1.09544">
        <ele>41.3</ele>
        <time>2021-10-22T04:27:12Z</time>
      </trkpt>
      <trkpt lat="49.44838" lon="1.0954">
        <ele>40.4</ele>
        <time>2021-10-22T04:27:13Z</time>
      </trkpt>
      <trkpt lat="49.44835" lon="1.09513">
        <ele>39.4</ele>
        <time>2021-10-22T04:27:15Z</time>
      </trkpt>
      <trkpt lat="49.44835" lon="1.095">
        <ele>38.9</ele>
        <time>2021-10-22T04:27:16Z</time>
      </trkpt>
      <trkpt lat="49.44837" lon="1.09479">
        <ele>37.9</ele>
        <time>2021-10-22T04:27:18Z</time>
      </trkpt>
      <trkpt lat="49.44838" lon="1.09466">
        <ele>37.4</ele>
        <time>2021-10-22T04:27:19Z</time>
      </trkpt>
      <trkpt lat="49.4484" lon="1.09442">
        <ele>37</ele>
        <time>2021-10-22T04:27:21Z</time>
      </trkpt>
      <trkpt lat="49.44836" lon="1.09425">
        <ele>37</ele>
        <time>2021-10-22T04:27:23Z</time>
      </trkpt>
      <trkpt lat="49.44834" lon="1.09421">
        <ele>36.9</ele>
        <time>2021-10-22T04:27:24Z</time>
      </trkpt>
      <trkpt lat="49.44832" lon="1.09417">
        <ele>36.8</ele>
        <time>2021-10-22T04:27:25Z</time>
      </trkpt>
      <trkpt lat="49.44814" lon="1.09412">
        <ele>36.6</ele>
        <time>2021-10-22T04:27:27Z</time>
      </trkpt>
      <trkpt lat="49.44797" lon="1.09411">
        <ele>36.6</ele>
        <time>2021-10-22T04:27:29Z</time>
      </trkpt>
      <trkpt lat="49.4478" lon="1.09408">
        <ele>36.6</ele>
        <time>2021-10-22T04:27:31Z</time>
      </trkpt>
      <trkpt lat="49.44765" lon="1.09402">
        <ele>36.5</ele>
        <time>2021-10-22T04:27:33Z</time>
      </trkpt>
      <trkpt lat="49.44753" lon="1.09394">
        <ele>36.3</ele>
        <time>2021-10-22T04:27:35Z</time>
      </trkpt>
      <trkpt lat="49.44741" lon="1.09383">
        <ele>36.1</ele>
        <time>2021-10-22T04:27:37Z</time>
      </trkpt>
      <trkpt lat="49.4473" lon="1.09369">
        <ele>35.8</ele>
        <time>2021-10-22T04:27:39Z</time>
      </trkpt>
      <trkpt lat="49.44726" lon="1.09363">
        <ele>35.6</ele>
        <time>2021-10-22T04:27:40Z</time>
      </trkpt>
      <trkpt lat="49.44722" lon="1.09345">
        <ele>35.3</ele>
        <time>2021-10-22T04:27:42Z</time>
      </trkpt>
      <trkpt lat="49.4472" lon="1.09335">
        <ele>35.1</ele>
        <time>2021-10-22T04:27:43Z</time>
      </trkpt>
      <trkpt lat="49.44719" lon="1.09327">
        <ele>35</ele>
        <time>2021-10-22T04:27:44Z</time>
      </trkpt>
      <trkpt lat="49.44717" lon="1.09316">
        <ele>34.8</ele>
        <time>2021-10-22T04:27:45Z</time>
      </trkpt>
      <trkpt lat="49.44711" lon="1.09294">
        <ele>34.4</ele>
        <time>2021-10-22T04:27:47Z</time>
      </trkpt>
      <trkpt lat="49.44706" lon="1.09271">
        <ele>34.1</ele>
        <time>2021-10-22T04:27:49Z</time>
      </trkpt>
      <trkpt lat="49.44699" lon="1.09243">
        <ele>33</ele>
        <time>2021-10-22T04:27:51Z</time>
      </trkpt>
      <trkpt lat="49.44694" lon="1.0922">
        <ele>32.6</ele>
        <time>2021-10-22T04:27:53Z</time>
      </trkpt>
      <trkpt lat="49.44691" lon="1.09207">
        <ele>32.4</ele>
        <time>2021-10-22T04:27:54Z</time>
      </trkpt>
      <trkpt lat="49.44685" lon="1.09184">
        <ele>32.1</ele>
        <time>2021-10-22T04:27:56Z</time>
      </trkpt>
      <trkpt lat="49.44682" lon="1.09173">
        <ele>31.9</ele>
        <time>2021-10-22T04:27:57Z</time>
      </trkpt>
      <trkpt lat="49.44679" lon="1.09162">
        <ele>31.8</ele>
        <time>2021-10-22T04:27:58Z</time>
      </trkpt>
      <trkpt lat="49.44676" lon="1.09149">
        <ele>31.7</ele>
        <time>2021-10-22T04:27:59Z</time>
      </trkpt>
      <trkpt lat="49.4467" lon="1.09125">
        <ele>31.5</ele>
        <time>2021-10-22T04:28:01Z</time>
      </trkpt>
      <trkpt lat="49.44667" lon="1.09115">
        <ele>31.3</ele>
        <time>2021-10-22T04:28:02Z</time>
      </trkpt>
      <trkpt lat="49.4466" lon="1.09091">
        <ele>30.9</ele>
        <time>2021-10-22T04:28:04Z</time>
      </trkpt>
      <trkpt lat="49.44656" lon="1.0908">
        <ele>30.8</ele>
        <time>2021-10-22T04:28:05Z</time>
      </trkpt>
      <trkpt lat="49.44652" lon="1.09057">
        <ele>30.4</ele>
        <time>2021-10-22T04:28:07Z</time>
      </trkpt>
      <trkpt lat="49.44649" lon="1.09038">
        <ele>30.2</ele>
        <time>2021-10-22T04:28:09Z</time>
      </trkpt>
      <trkpt lat="49.44646" lon="1.09015">
        <ele>30.1</ele>
        <time>2021-10-22T04:28:11Z</time>
      </trkpt>
      <trkpt lat="49.44641" lon="1.08989">
        <ele>29.7</ele>
        <time>2021-10-22T04:28:13Z</time>
      </trkpt>
      <trkpt lat="49.44637" lon="1.08967">
        <ele>29.3</ele>
        <time>2021-10-22T04:28:15Z</time>
      </trkpt>
      <trkpt lat="49.44636" lon="1.08955">
        <ele>29.2</ele>
        <time>2021-10-22T04:28:16Z</time>
      </trkpt>
      <trkpt lat="49.44634" lon="1.08931">
        <ele>28.8</ele>
        <time>2021-10-22T04:28:18Z</time>
      </trkpt>
      <trkpt lat="49.44631" lon="1.0891">
        <ele>28.5</ele>
        <time>2021-10-22T04:28:20Z</time>
      </trkpt>
      <trkpt lat="49.44628" lon="1.08888">
        <ele>28.2</ele>
        <time>2021-10-22T04:28:22Z</time>
      </trkpt>
      <trkpt lat="49.44625" lon="1.08864">
        <ele>27.9</ele>
        <time>2021-10-22T04:28:24Z</time>
      </trkpt>
      <trkpt lat="49.44621" lon="1.08839">
        <ele>27.7</ele>
        <time>2021-10-22T04:28:26Z</time>
      </trkpt>
      <trkpt lat="49.44619" lon="1.08828">
        <ele>27.6</ele>
        <time>2021-10-22T04:28:27Z</time>
      </trkpt>
      <trkpt lat="49.44615" lon="1.08805">
        <ele>27.4</ele>
        <time>2021-10-22T04:28:29Z</time>
      </trkpt>
      <trkpt lat="49.44612" lon="1.08793">
        <ele>27.2</ele>
        <time>2021-10-22T04:28:30Z</time>
      </trkpt>
      <trkpt lat="49.44607" lon="1.08769">
        <ele>26.9</ele>
        <time>2021-10-22T04:28:32Z</time>
      </trkpt>
      <trkpt lat="49.44605" lon="1.08758">
        <ele>26.8</ele>
        <time>2021-10-22T04:28:33Z</time>
      </trkpt>
      <trkpt lat="49.44599" lon="1.08735">
        <ele>26.5</ele>
        <time>2021-10-22T04:28:35Z</time>
      </trkpt>
      <trkpt lat="49.44597" lon="1.08722">
        <ele>26.3</ele>
        <time>2021-10-22T04:28:36Z</time>
      </trkpt>
      <trkpt lat="49.44591" lon="1.087">
        <ele>26</ele>
        <time>2021-10-22T04:28:38Z</time>
      </trkpt>
      <trkpt lat="49.44587" lon="1.0868">
        <ele>25.7</ele>
        <time>2021-10-22T04:28:40Z</time>
      </trkpt>
      <trkpt lat="49.44585" lon="1.08671">
        <ele>25.6</ele>
        <time>2021-10-22T04:28:42Z</time>
      </trkpt>
      <trkpt lat="49.44584" lon="1.08668">
        <ele>25.5</ele>
        <time>2021-10-22T04:28:44Z</time>
      </trkpt>
      <trkpt lat="49.44584" lon="1.08668">
        <ele>25.5</ele>
        <time>2021-10-22T04:28:45Z</time>
      </trkpt>
      <trkpt lat="49.44584" lon="1.08669">
        <ele>25.5</ele>
        <time>2021-10-22T04:28:46Z</time>
      </trkpt>
      <trkpt lat="49.44584" lon="1.0867">
        <ele>25.5</ele>
        <time>2021-10-22T04:28:48Z</time>
      </trkpt>
      <trkpt lat="49.44585" lon="1.0867">
        <ele>25.5</ele>
        <time>2021-10-22T04:28:50Z</time>
      </trkpt>
      <trkpt lat="49.44584" lon="1.08668">
        <ele>25.4</ele>
        <time>2021-10-22T04:28:51Z</time>
      </trkpt>
      <trkpt lat="49.44581" lon="1.08658">
        <ele>25.3</ele>
        <time>2021-10-22T04:28:53Z</time>
      </trkpt>
      <trkpt lat="49.44578" lon="1.08652">
        <ele>25</ele>
        <time>2021-10-22T04:28:55Z</time>
      </trkpt>
      <trkpt lat="49.44575" lon="1.08649">
        <ele>24.7</ele>
        <time>2021-10-22T04:28:56Z</time>
      </trkpt>
      <trkpt lat="49.44571" lon="1.08641">
        <ele>24.4</ele>
        <time>2021-10-22T04:28:57Z</time>
      </trkpt>
      <trkpt lat="49.44562" lon="1.0863">
        <ele>24</ele>
        <time>2021-10-22T04:28:59Z</time>
      </trkpt>
      <trkpt lat="49.44556" lon="1.08629">
        <ele>23.8</ele>
        <time>2021-10-22T04:29:00Z</time>
      </trkpt>
      <trkpt lat="49.4455" lon="1.08626">
        <ele>23.6</ele>
        <time>2021-10-22T04:29:01Z</time>
      </trkpt>
      <trkpt lat="49.44544" lon="1.0862">
        <ele>23.3</ele>
        <time>2021-10-22T04:29:02Z</time>
      </trkpt>
      <trkpt lat="49.44532" lon="1.08612">
        <ele>22.7</ele>
        <time>2021-10-22T04:29:04Z</time>
      </trkpt>
      <trkpt lat="49.44524" lon="1.08609">
        <ele>22.3</ele>
        <time>2021-10-22T04:29:05Z</time>
      </trkpt>
      <trkpt lat="49.44517" lon="1.08604">
        <ele>22</ele>
        <time>2021-10-22T04:29:06Z</time>
      </trkpt>
      <trkpt lat="49.4451" lon="1.086">
        <ele>21.8</ele>
        <time>2021-10-22T04:29:07Z</time>
      </trkpt>
      <trkpt lat="49.44496" lon="1.0859">
        <ele>20.8</ele>
        <time>2021-10-22T04:29:09Z</time>
      </trkpt>
      <trkpt lat="49.44481" lon="1.08581">
        <ele>19.9</ele>
        <time>2021-10-22T04:29:11Z</time>
      </trkpt>
      <trkpt lat="49.44474" lon="1.08576">
        <ele>19.4</ele>
        <time>2021-10-22T04:29:12Z</time>
      </trkpt>
      <trkpt lat="49.44466" lon="1.08571">
        <ele>19</ele>
        <time>2021-10-22T04:29:13Z</time>
      </trkpt>
      <trkpt lat="49.44451" lon="1.08563">
        <ele>18.5</ele>
        <time>2021-10-22T04:29:15Z</time>
      </trkpt>
      <trkpt lat="49.44436" lon="1.08554">
        <ele>18</ele>
        <time>2021-10-22T04:29:17Z</time>
      </trkpt>
      <trkpt lat="49.4443" lon="1.0855">
        <ele>17.7</ele>
        <time>2021-10-22T04:29:18Z</time>
      </trkpt>
      <trkpt lat="49.44423" lon="1.08546">
        <ele>17.5</ele>
        <time>2021-10-22T04:29:19Z</time>
      </trkpt>
      <trkpt lat="49.4441" lon="1.08537">
        <ele>17</ele>
        <time>2021-10-22T04:29:21Z</time>
      </trkpt>
      <trkpt lat="49.44396" lon="1.08529">
        <ele>16.3</ele>
        <time>2021-10-22T04:29:23Z</time>
      </trkpt>
      <trkpt lat="49.44389" lon="1.08524">
        <ele>16</ele>
        <time>2021-10-22T04:29:24Z</time>
      </trkpt>
      <trkpt lat="49.44374" lon="1.08516">
        <ele>15.4</ele>
        <time>2021-10-22T04:29:26Z</time>
      </trkpt>
      <trkpt lat="49.44359" lon="1.08507">
        <ele>14.9</ele>
        <time>2021-10-22T04:29:28Z</time>
      </trkpt>
      <trkpt lat="49.44344" lon="1.08499">
        <ele>14.5</ele>
        <time>2021-10-22T04:29:30Z</time>
      </trkpt>
      <trkpt lat="49.44337" lon="1.08495">
        <ele>14.2</ele>
        <time>2021-10-22T04:29:31Z</time>
      </trkpt>
      <trkpt lat="49.44321" lon="1.08485">
        <ele>13.6</ele>
        <time>2021-10-22T04:29:33Z</time>
      </trkpt>
      <trkpt lat="49.44307" lon="1.08475">
        <ele>13.1</ele>
        <time>2021-10-22T04:29:35Z</time>
      </trkpt>
      <trkpt lat="49.44293" lon="1.08464">
        <ele>12.8</ele>
        <time>2021-10-22T04:29:37Z</time>
      </trkpt>
      <trkpt lat="49.44286" lon="1.08458">
        <ele>12.6</ele>
        <time>2021-10-22T04:29:38Z</time>
      </trkpt>
      <trkpt lat="49.44273" lon="1.08444">
        <ele>12.2</ele>
        <time>2021-10-22T04:29:40Z</time>
      </trkpt>
      <trkpt lat="49.4426" lon="1.08429">
        <ele>11.9</ele>
        <time>2021-10-22T04:29:42Z</time>
      </trkpt>
      <trkpt lat="49.44247" lon="1.08417">
        <ele>11.6</ele>
        <time>2021-10-22T04:29:44Z</time>
      </trkpt>
      <trkpt lat="49.44241" lon="1.08411">
        <ele>11.4</ele>
        <time>2021-10-22T04:29:45Z</time>
      </trkpt>
      <trkpt lat="49.44235" lon="1.08405">
        <ele>11.2</ele>
        <time>2021-10-22T04:29:46Z</time>
      </trkpt>
      <trkpt lat="49.44223" lon="1.08393">
        <ele>11</ele>
        <time>2021-10-22T04:29:48Z</time>
      </trkpt>
      <trkpt lat="49.44214" lon="1.08382">
        <ele>10.8</ele>
        <time>2021-10-22T04:29:50Z</time>
      </trkpt>
      <trkpt lat="49.44207" lon="1.08369">
        <ele>10.8</ele>
        <time>2021-10-22T04:29:52Z</time>
      </trkpt>
      <trkpt lat="49.44203" lon="1.08363">
        <ele>10.7</ele>
        <time>2021-10-22T04:29:53Z</time>
      </trkpt>
      <trkpt lat="49.44197" lon="1.08351">
        <ele>10.6</ele>
        <time>2021-10-22T04:29:55Z</time>
      </trkpt>
      <trkpt lat="49.44194" lon="1.08346">
        <ele>10.5</ele>
        <time>2021-10-22T04:29:56Z</time>
      </trkpt>
      <trkpt lat="49.4419" lon="1.08343">
        <ele>10.5</ele>
        <time>2021-10-22T04:29:57Z</time>
      </trkpt>
      <trkpt lat="49.44182" lon="1.08333">
        <ele>10.3</ele>
        <time>2021-10-22T04:29:59Z</time>
      </trkpt>
      <trkpt lat="49.44174" lon="1.08322">
        <ele>10.2</ele>
        <time>2021-10-22T04:30:01Z</time>
      </trkpt>
      <trkpt lat="49.44169" lon="1.08313">
        <ele>10.1</ele>
        <time>2021-10-22T04:30:03Z</time>
      </trkpt>
      <trkpt lat="49.44167" lon="1.08307">
        <ele>10.1</ele>
        <time>2021-10-22T04:30:05Z</time>
      </trkpt>
      <trkpt lat="49.44167" lon="1.083">
        <ele>9.9</ele>
        <time>2021-10-22T04:30:07Z</time>
      </trkpt>
      <trkpt lat="49.44168" lon="1.08295">
        <ele>9.9</ele>
        <time>2021-10-22T04:30:08Z</time>
      </trkpt>
      <trkpt lat="49.44174" lon="1.08286">
        <ele>10</ele>
        <time>2021-10-22T04:30:10Z</time>
      </trkpt>
      <trkpt lat="49.4418" lon="1.08273">
        <ele>10.2</ele>
        <time>2021-10-22T04:30:12Z</time>
      </trkpt>
      <trkpt lat="49.44183" lon="1.08267">
        <ele>10.3</ele>
        <time>2021-10-22T04:30:13Z</time>
      </trkpt>
      <trkpt lat="49.4418" lon="1.08253">
        <ele>11</ele>
        <time>2021-10-22T04:30:15Z</time>
      </trkpt>
      <trkpt lat="49.44176" lon="1.08247">
        <ele>11.2</ele>
        <time>2021-10-22T04:30:16Z</time>
      </trkpt>
      <trkpt lat="49.44173" lon="1.08242">
        <ele>11.3</ele>
        <time>2021-10-22T04:30:17Z</time>
      </trkpt>
      <trkpt lat="49.44165" lon="1.08234">
        <ele>11.7</ele>
        <time>2021-10-22T04:30:19Z</time>
      </trkpt>
      <trkpt lat="49.44161" lon="1.08228">
        <ele>11.8</ele>
        <time>2021-10-22T04:30:20Z</time>
      </trkpt>
      <trkpt lat="49.44157" lon="1.08223">
        <ele>12</ele>
        <time>2021-10-22T04:30:21Z</time>
      </trkpt>
      <trkpt lat="49.44147" lon="1.08214">
        <ele>12.4</ele>
        <time>2021-10-22T04:30:23Z</time>
      </trkpt>
      <trkpt lat="49.44137" lon="1.08205">
        <ele>12.7</ele>
        <time>2021-10-22T04:30:25Z</time>
      </trkpt>
      <trkpt lat="49.44132" lon="1.08201">
        <ele>12.8</ele>
        <time>2021-10-22T04:30:26Z</time>
      </trkpt>
      <trkpt lat="49.44123" lon="1.08191">
        <ele>13.1</ele>
        <time>2021-10-22T04:30:28Z</time>
      </trkpt>
      <trkpt lat="49.44114" lon="1.08183">
        <ele>13.3</ele>
        <time>2021-10-22T04:30:30Z</time>
      </trkpt>
      <trkpt lat="49.44108" lon="1.08179">
        <ele>13.5</ele>
        <time>2021-10-22T04:30:31Z</time>
      </trkpt>
      <trkpt lat="49.44098" lon="1.08172">
        <ele>13.7</ele>
        <time>2021-10-22T04:30:33Z</time>
      </trkpt>
      <trkpt lat="49.44092" lon="1.08169">
        <ele>13.9</ele>
        <time>2021-10-22T04:30:34Z</time>
      </trkpt>
      <trkpt lat="49.44081" lon="1.08162">
        <ele>14.2</ele>
        <time>2021-10-22T04:30:36Z</time>
      </trkpt>
      <trkpt lat="49.44076" lon="1.08158">
        <ele>14.3</ele>
        <time>2021-10-22T04:30:37Z</time>
      </trkpt>
      <trkpt lat="49.4407" lon="1.08155">
        <ele>14.5</ele>
        <time>2021-10-22T04:30:38Z</time>
      </trkpt>
      <trkpt lat="49.44065" lon="1.08151">
        <ele>14.6</ele>
        <time>2021-10-22T04:30:39Z</time>
      </trkpt>
      <trkpt lat="49.44053" lon="1.08143">
        <ele>14.7</ele>
        <time>2021-10-22T04:30:41Z</time>
      </trkpt>
      <trkpt lat="49.44048" lon="1.08139">
        <ele>14.8</ele>
        <time>2021-10-22T04:30:42Z</time>
      </trkpt>
      <trkpt lat="49.44038" lon="1.08131">
        <ele>15</ele>
        <time>2021-10-22T04:30:44Z</time>
      </trkpt>
      <trkpt lat="49.44032" lon="1.08127">
        <ele>15</ele>
        <time>2021-10-22T04:30:45Z</time>
      </trkpt>
      <trkpt lat="49.44022" lon="1.08118">
        <ele>15.2</ele>
        <time>2021-10-22T04:30:47Z</time>
      </trkpt>
      <trkpt lat="49.44017" lon="1.08114">
        <ele>15.2</ele>
        <time>2021-10-22T04:30:48Z</time>
      </trkpt>
      <trkpt lat="49.44011" lon="1.0811">
        <ele>15.2</ele>
        <time>2021-10-22T04:30:49Z</time>
      </trkpt>
      <trkpt lat="49.44005" lon="1.08106">
        <ele>15.2</ele>
        <time>2021-10-22T04:30:50Z</time>
      </trkpt>
      <trkpt lat="49.43995" lon="1.08098">
        <ele>15.2</ele>
        <time>2021-10-22T04:30:52Z</time>
      </trkpt>
      <trkpt lat="49.43989" lon="1.08094">
        <ele>15.2</ele>
        <time>2021-10-22T04:30:53Z</time>
      </trkpt>
      <trkpt lat="49.43977" lon="1.08086">
        <ele>15.1</ele>
        <time>2021-10-22T04:30:55Z</time>
      </trkpt>
      <trkpt lat="49.43964" lon="1.08076">
        <ele>15</ele>
        <time>2021-10-22T04:30:57Z</time>
      </trkpt>
      <trkpt lat="49.43952" lon="1.08067">
        <ele>14.9</ele>
        <time>2021-10-22T04:30:59Z</time>
      </trkpt>
      <trkpt lat="49.43946" lon="1.08063">
        <ele>14.8</ele>
        <time>2021-10-22T04:31:00Z</time>
      </trkpt>
      <trkpt lat="49.43939" lon="1.08058">
        <ele>14.6</ele>
        <time>2021-10-22T04:31:01Z</time>
      </trkpt>
      <trkpt lat="49.43927" lon="1.08049">
        <ele>14.4</ele>
        <time>2021-10-22T04:31:03Z</time>
      </trkpt>
      <trkpt lat="49.43915" lon="1.08041">
        <ele>14.3</ele>
        <time>2021-10-22T04:31:05Z</time>
      </trkpt>
      <trkpt lat="49.43905" lon="1.08038">
        <ele>14.1</ele>
        <time>2021-10-22T04:31:07Z</time>
      </trkpt>
      <trkpt lat="49.43896" lon="1.08043">
        <ele>13.8</ele>
        <time>2021-10-22T04:31:09Z</time>
      </trkpt>
      <trkpt lat="49.4389" lon="1.08048">
        <ele>13.6</ele>
        <time>2021-10-22T04:31:11Z</time>
      </trkpt>
      <trkpt lat="49.43884" lon="1.08046">
        <ele>13.5</ele>
        <time>2021-10-22T04:31:12Z</time>
      </trkpt>
      <trkpt lat="49.43877" lon="1.08038">
        <ele>13.3</ele>
        <time>2021-10-22T04:31:14Z</time>
      </trkpt>
      <trkpt lat="49.43869" lon="1.08027">
        <ele>13.2</ele>
        <time>2021-10-22T04:31:16Z</time>
      </trkpt>
      <trkpt lat="49.43863" lon="1.08012">
        <ele>13</ele>
        <time>2021-10-22T04:31:18Z</time>
      </trkpt>
      <trkpt lat="49.43859" lon="1.08006">
        <ele>13</ele>
        <time>2021-10-22T04:31:19Z</time>
      </trkpt>
      <trkpt lat="49.43854" lon="1.08001">
        <ele>12.9</ele>
        <time>2021-10-22T04:31:20Z</time>
      </trkpt>
      <trkpt lat="49.43844" lon="1.07991">
        <ele>12.8</ele>
        <time>2021-10-22T04:31:22Z</time>
      </trkpt>
      <trkpt lat="49.43834" lon="1.07981">
        <ele>12.7</ele>
        <time>2021-10-22T04:31:24Z</time>
      </trkpt>
      <trkpt lat="49.43829" lon="1.07976">
        <ele>12.6</ele>
        <time>2021-10-22T04:31:25Z</time>
      </trkpt>
      <trkpt lat="49.43818" lon="1.07965">
        <ele>12.6</ele>
        <time>2021-10-22T04:31:27Z</time>
      </trkpt>
      <trkpt lat="49.43807" lon="1.07955">
        <ele>12.6</ele>
        <time>2021-10-22T04:31:29Z</time>
      </trkpt>
      <trkpt lat="49.43801" lon="1.07949">
        <ele>12.6</ele>
        <time>2021-10-22T04:31:30Z</time>
      </trkpt>
      <trkpt lat="49.43795" lon="1.07944">
        <ele>12.5</ele>
        <time>2021-10-22T04:31:31Z</time>
      </trkpt>
      <trkpt lat="49.4379" lon="1.07939">
        <ele>12.5</ele>
        <time>2021-10-22T04:31:32Z</time>
      </trkpt>
      <trkpt lat="49.43785" lon="1.07935">
        <ele>12.5</ele>
        <time>2021-10-22T04:31:33Z</time>
      </trkpt>
      <trkpt lat="49.43773" lon="1.07925">
        <ele>12.4</ele>
        <time>2021-10-22T04:31:35Z</time>
      </trkpt>
      <trkpt lat="49.43767" lon="1.0792">
        <ele>12.3</ele>
        <time>2021-10-22T04:31:36Z</time>
      </trkpt>
      <trkpt lat="49.4376" lon="1.07915">
        <ele>12.3</ele>
        <time>2021-10-22T04:31:37Z</time>
      </trkpt>
      <trkpt lat="49.43754" lon="1.07909">
        <ele>12.3</ele>
        <time>2021-10-22T04:31:38Z</time>
      </trkpt>
      <trkpt lat="49.43744" lon="1.07897">
        <ele>12.2</ele>
        <time>2021-10-22T04:31:40Z</time>
      </trkpt>
      <trkpt lat="49.43739" lon="1.07892">
        <ele>12.2</ele>
        <time>2021-10-22T04:31:41Z</time>
      </trkpt>
      <trkpt lat="49.43733" lon="1.0788">
        <ele>12.2</ele>
        <time>2021-10-22T04:31:43Z</time>
      </trkpt>
      <trkpt lat="49.4373" lon="1.07876">
        <ele>12.3</ele>
        <time>2021-10-22T04:31:44Z</time>
      </trkpt>
      <trkpt lat="49.43718" lon="1.0787">
        <ele>12.3</ele>
        <time>2021-10-22T04:31:46Z</time>
      </trkpt>
      <trkpt lat="49.43705" lon="1.07863">
        <ele>12.4</ele>
        <time>2021-10-22T04:31:48Z</time>
      </trkpt>
      <trkpt lat="49.43694" lon="1.07854">
        <ele>12.4</ele>
        <time>2021-10-22T04:31:50Z</time>
      </trkpt>
      <trkpt lat="49.43681" lon="1.07842">
        <ele>12.5</ele>
        <time>2021-10-22T04:31:52Z</time>
      </trkpt>
      <trkpt lat="49.43668" lon="1.0783">
        <ele>12.5</ele>
        <time>2021-10-22T04:31:54Z</time>
      </trkpt>
      <trkpt lat="49.43661" lon="1.07825">
        <ele>12.5</ele>
        <time>2021-10-22T04:31:55Z</time>
      </trkpt>
      <trkpt lat="49.43654" lon="1.07819">
        <ele>12.6</ele>
        <time>2021-10-22T04:31:56Z</time>
      </trkpt>
      <trkpt lat="49.43641" lon="1.07808">
        <ele>12.6</ele>
        <time>2021-10-22T04:31:58Z</time>
      </trkpt>
      <trkpt lat="49.43634" lon="1.07803">
        <ele>12.6</ele>
        <time>2021-10-22T04:31:59Z</time>
      </trkpt>
      <trkpt lat="49.43629" lon="1.078">
        <ele>12.6</ele>
        <time>2021-10-22T04:32:00Z</time>
      </trkpt>
      <trkpt lat="49.43616" lon="1.07791">
        <ele>12.5</ele>
        <time>2021-10-22T04:32:02Z</time>
      </trkpt>
      <trkpt lat="49.4361" lon="1.07786">
        <ele>12.5</ele>
        <time>2021-10-22T04:32:03Z</time>
      </trkpt>
      <trkpt lat="49.43598" lon="1.07776">
        <ele>12.5</ele>
        <time>2021-10-22T04:32:05Z</time>
      </trkpt>
      <trkpt lat="49.43587" lon="1.07766">
        <ele>12.5</ele>
        <time>2021-10-22T04:32:07Z</time>
      </trkpt>
      <trkpt lat="49.43576" lon="1.07757">
        <ele>12.5</ele>
        <time>2021-10-22T04:32:09Z</time>
      </trkpt>
      <trkpt lat="49.4357" lon="1.07752">
        <ele>12.5</ele>
        <time>2021-10-22T04:32:10Z</time>
      </trkpt>
      <trkpt lat="49.43558" lon="1.07745">
        <ele>12.4</ele>
        <time>2021-10-22T04:32:12Z</time>
      </trkpt>
      <trkpt lat="49.43552" lon="1.07739">
        <ele>12.4</ele>
        <time>2021-10-22T04:32:13Z</time>
      </trkpt>
      <trkpt lat="49.43547" lon="1.07733">
        <ele>12.3</ele>
        <time>2021-10-22T04:32:14Z</time>
      </trkpt>
      <trkpt lat="49.43536" lon="1.07722">
        <ele>12.3</ele>
        <time>2021-10-22T04:32:16Z</time>
      </trkpt>
      <trkpt lat="49.43531" lon="1.07716">
        <ele>12.3</ele>
        <time>2021-10-22T04:32:17Z</time>
      </trkpt>
      <trkpt lat="49.43526" lon="1.07711">
        <ele>12.2</ele>
        <time>2021-10-22T04:32:18Z</time>
      </trkpt>
      <trkpt lat="49.43516" lon="1.077">
        <ele>12.2</ele>
        <time>2021-10-22T04:32:20Z</time>
      </trkpt>
      <trkpt lat="49.4351" lon="1.07693">
        <ele>12.2</ele>
        <time>2021-10-22T04:32:22Z</time>
      </trkpt>
      <trkpt lat="49.43503" lon="1.07684">
        <ele>12.2</ele>
        <time>2021-10-22T04:32:24Z</time>
      </trkpt>
      <trkpt lat="49.43494" lon="1.07678">
        <ele>12.2</ele>
        <time>2021-10-22T04:32:26Z</time>
      </trkpt>
      <trkpt lat="49.43488" lon="1.07674">
        <ele>12.2</ele>
        <time>2021-10-22T04:32:28Z</time>
      </trkpt>
      <trkpt lat="49.43486" lon="1.07672">
        <ele>12.2</ele>
        <time>2021-10-22T04:32:29Z</time>
      </trkpt>
      <trkpt lat="49.43486" lon="1.07674">
        <ele>12.2</ele>
        <time>2021-10-22T04:32:30Z</time>
      </trkpt>
      <trkpt lat="49.43476" lon="1.07671">
        <ele>12.2</ele>
        <time>2021-10-22T04:32:32Z</time>
      </trkpt>
      <trkpt lat="49.43471" lon="1.07665">
        <ele>12.1</ele>
        <time>2021-10-22T04:32:33Z</time>
      </trkpt>
      <trkpt lat="49.43466" lon="1.07656">
        <ele>12.1</ele>
        <time>2021-10-22T04:32:34Z</time>
      </trkpt>
      <trkpt lat="49.43463" lon="1.07646">
        <ele>12.1</ele>
        <time>2021-10-22T04:32:35Z</time>
      </trkpt>
      <trkpt lat="49.43461" lon="1.07636">
        <ele>12.4</ele>
        <time>2021-10-22T04:32:36Z</time>
      </trkpt>
      <trkpt lat="49.43456" lon="1.07629">
        <ele>12.3</ele>
        <time>2021-10-22T04:32:37Z</time>
      </trkpt>
      <trkpt lat="49.4345" lon="1.07619">
        <ele>12.3</ele>
        <time>2021-10-22T04:32:38Z</time>
      </trkpt>
      <trkpt lat="49.43443" lon="1.07611">
        <ele>12.3</ele>
        <time>2021-10-22T04:32:39Z</time>
      </trkpt>
      <trkpt lat="49.43427" lon="1.07594">
        <ele>12.1</ele>
        <time>2021-10-22T04:32:41Z</time>
      </trkpt>
      <trkpt lat="49.43419" lon="1.07586">
        <ele>12</ele>
        <time>2021-10-22T04:32:42Z</time>
      </trkpt>
      <trkpt lat="49.43404" lon="1.07572">
        <ele>11.9</ele>
        <time>2021-10-22T04:32:44Z</time>
      </trkpt>
      <trkpt lat="49.43396" lon="1.07565">
        <ele>11.8</ele>
        <time>2021-10-22T04:32:45Z</time>
      </trkpt>
      <trkpt lat="49.43382" lon="1.07553">
        <ele>11.6</ele>
        <time>2021-10-22T04:32:47Z</time>
      </trkpt>
      <trkpt lat="49.43369" lon="1.07542">
        <ele>11.5</ele>
        <time>2021-10-22T04:32:49Z</time>
      </trkpt>
      <trkpt lat="49.43356" lon="1.07531">
        <ele>11.3</ele>
        <time>2021-10-22T04:32:51Z</time>
      </trkpt>
      <trkpt lat="49.43349" lon="1.07526">
        <ele>11.2</ele>
        <time>2021-10-22T04:32:52Z</time>
      </trkpt>
      <trkpt lat="49.43342" lon="1.07522">
        <ele>11.1</ele>
        <time>2021-10-22T04:32:53Z</time>
      </trkpt>
      <trkpt lat="49.43335" lon="1.07517">
        <ele>11.1</ele>
        <time>2021-10-22T04:32:54Z</time>
      </trkpt>
      <trkpt lat="49.43322" lon="1.07507">
        <ele>11</ele>
        <time>2021-10-22T04:32:56Z</time>
      </trkpt>
      <trkpt lat="49.43309" lon="1.07496">
        <ele>10.9</ele>
        <time>2021-10-22T04:32:58Z</time>
      </trkpt>
      <trkpt lat="49.43302" lon="1.0749">
        <ele>10.8</ele>
        <time>2021-10-22T04:32:59Z</time>
      </trkpt>
      <trkpt lat="49.43289" lon="1.07479">
        <ele>10.8</ele>
        <time>2021-10-22T04:33:01Z</time>
      </trkpt>
      <trkpt lat="49.43277" lon="1.07467">
        <ele>10.7</ele>
        <time>2021-10-22T04:33:03Z</time>
      </trkpt>
      <trkpt lat="49.43271" lon="1.07461">
        <ele>10.7</ele>
        <time>2021-10-22T04:33:04Z</time>
      </trkpt>
      <trkpt lat="49.43264" lon="1.07455">
        <ele>10.7</ele>
        <time>2021-10-22T04:33:05Z</time>
      </trkpt>
      <trkpt lat="49.43251" lon="1.07444">
        <ele>10.6</ele>
        <time>2021-10-22T04:33:07Z</time>
      </trkpt>
      <trkpt lat="49.43245" lon="1.07439">
        <ele>10.5</ele>
        <time>2021-10-22T04:33:08Z</time>
      </trkpt>
      <trkpt lat="49.43233" lon="1.07428">
        <ele>10.5</ele>
        <time>2021-10-22T04:33:10Z</time>
      </trkpt>
      <trkpt lat="49.43221" lon="1.07416">
        <ele>10.4</ele>
        <time>2021-10-22T04:33:12Z</time>
      </trkpt>
      <trkpt lat="49.43214" lon="1.07409">
        <ele>10.4</ele>
        <time>2021-10-22T04:33:13Z</time>
      </trkpt>
      <trkpt lat="49.43202" lon="1.07398">
        <ele>10.3</ele>
        <time>2021-10-22T04:33:15Z</time>
      </trkpt>
      <trkpt lat="49.43195" lon="1.07393">
        <ele>10.3</ele>
        <time>2021-10-22T04:33:16Z</time>
      </trkpt>
      <trkpt lat="49.43182" lon="1.07381">
        <ele>10.2</ele>
        <time>2021-10-22T04:33:18Z</time>
      </trkpt>
      <trkpt lat="49.43169" lon="1.07372">
        <ele>10.2</ele>
        <time>2021-10-22T04:33:20Z</time>
      </trkpt>
      <trkpt lat="49.43155" lon="1.07364">
        <ele>10.1</ele>
        <time>2021-10-22T04:33:22Z</time>
      </trkpt>
      <trkpt lat="49.43149" lon="1.07359">
        <ele>10</ele>
        <time>2021-10-22T04:33:23Z</time>
      </trkpt>
      <trkpt lat="49.43142" lon="1.07354">
        <ele>10</ele>
        <time>2021-10-22T04:33:24Z</time>
      </trkpt>
      <trkpt lat="49.4313" lon="1.07344">
        <ele>10</ele>
        <time>2021-10-22T04:33:26Z</time>
      </trkpt>
      <trkpt lat="49.43124" lon="1.07339">
        <ele>10</ele>
        <time>2021-10-22T04:33:27Z</time>
      </trkpt>
      <trkpt lat="49.43117" lon="1.07334">
        <ele>10</ele>
        <time>2021-10-22T04:33:28Z</time>
      </trkpt>
      <trkpt lat="49.4311" lon="1.07328">
        <ele>9.9</ele>
        <time>2021-10-22T04:33:29Z</time>
      </trkpt>
      <trkpt lat="49.43104" lon="1.07322">
        <ele>9.9</ele>
        <time>2021-10-22T04:33:30Z</time>
      </trkpt>
      <trkpt lat="49.43091" lon="1.07312">
        <ele>9.9</ele>
        <time>2021-10-22T04:33:32Z</time>
      </trkpt>
      <trkpt lat="49.43085" lon="1.07306">
        <ele>9.9</ele>
        <time>2021-10-22T04:33:33Z</time>
      </trkpt>
      <trkpt lat="49.43073" lon="1.07294">
        <ele>9.9</ele>
        <time>2021-10-22T04:33:35Z</time>
      </trkpt>
      <trkpt lat="49.43067" lon="1.07288">
        <ele>9.9</ele>
        <time>2021-10-22T04:33:36Z</time>
      </trkpt>
      <trkpt lat="49.43061" lon="1.07282">
        <ele>9.9</ele>
        <time>2021-10-22T04:33:37Z</time>
      </trkpt>
      <trkpt lat="49.43048" lon="1.07272">
        <ele>9.9</ele>
        <time>2021-10-22T04:33:39Z</time>
      </trkpt>
      <trkpt lat="49.43036" lon="1.07261">
        <ele>10</ele>
        <time>2021-10-22T04:33:41Z</time>
      </trkpt>
      <trkpt lat="49.4303" lon="1.07255">
        <ele>10</ele>
        <time>2021-10-22T04:33:42Z</time>
      </trkpt>
      <trkpt lat="49.43018" lon="1.07245">
        <ele>10</ele>
        <time>2021-10-22T04:33:44Z</time>
      </trkpt>
      <trkpt lat="49.43006" lon="1.07235">
        <ele>10</ele>
        <time>2021-10-22T04:33:46Z</time>
      </trkpt>
      <trkpt lat="49.42999" lon="1.07232">
        <ele>10</ele>
        <time>2021-10-22T04:33:47Z</time>
      </trkpt>
      <trkpt lat="49.42986" lon="1.07225">
        <ele>10</ele>
        <time>2021-10-22T04:33:49Z</time>
      </trkpt>
      <trkpt lat="49.42974" lon="1.07217">
        <ele>10</ele>
        <time>2021-10-22T04:33:51Z</time>
      </trkpt>
      <trkpt lat="49.42968" lon="1.07212">
        <ele>10</ele>
        <time>2021-10-22T04:33:52Z</time>
      </trkpt>
      <trkpt lat="49.42962" lon="1.07208">
        <ele>10</ele>
        <time>2021-10-22T04:33:53Z</time>
      </trkpt>
      <trkpt lat="49.4295" lon="1.07199">
        <ele>10.1</ele>
        <time>2021-10-22T04:33:55Z</time>
      </trkpt>
      <trkpt lat="49.42938" lon="1.07191">
        <ele>10.1</ele>
        <time>2021-10-22T04:33:57Z</time>
      </trkpt>
      <trkpt lat="49.42933" lon="1.07186">
        <ele>10.1</ele>
        <time>2021-10-22T04:33:58Z</time>
      </trkpt>
      <trkpt lat="49.42923" lon="1.07176">
        <ele>10.2</ele>
        <time>2021-10-22T04:34:00Z</time>
      </trkpt>
      <trkpt lat="49.42913" lon="1.07167">
        <ele>10.3</ele>
        <time>2021-10-22T04:34:02Z</time>
      </trkpt>
      <trkpt lat="49.42905" lon="1.07156">
        <ele>10.4</ele>
        <time>2021-10-22T04:34:04Z</time>
      </trkpt>
      <trkpt lat="49.42902" lon="1.07149">
        <ele>10.4</ele>
        <time>2021-10-22T04:34:05Z</time>
      </trkpt>
      <trkpt lat="49.42898" lon="1.07143">
        <ele>10.4</ele>
        <time>2021-10-22T04:34:06Z</time>
      </trkpt>
      <trkpt lat="49.42893" lon="1.07136">
        <ele>10.5</ele>
        <time>2021-10-22T04:34:08Z</time>
      </trkpt>
      <trkpt lat="49.42888" lon="1.0713">
        <ele>10.5</ele>
        <time>2021-10-22T04:34:09Z</time>
      </trkpt>
      <trkpt lat="49.42879" lon="1.0712">
        <ele>10.5</ele>
        <time>2021-10-22T04:34:11Z</time>
      </trkpt>
      <trkpt lat="49.42871" lon="1.07111">
        <ele>10.5</ele>
        <time>2021-10-22T04:34:13Z</time>
      </trkpt>
      <trkpt lat="49.42866" lon="1.07106">
        <ele>10.5</ele>
        <time>2021-10-22T04:34:14Z</time>
      </trkpt>
      <trkpt lat="49.42862" lon="1.07101">
        <ele>10.5</ele>
        <time>2021-10-22T04:34:15Z</time>
      </trkpt>
      <trkpt lat="49.42858" lon="1.07096">
        <ele>10.5</ele>
        <time>2021-10-22T04:34:16Z</time>
      </trkpt>
      <trkpt lat="49.42855" lon="1.07079">
        <ele>10.4</ele>
        <time>2021-10-22T04:34:18Z</time>
      </trkpt>
      <trkpt lat="49.42855" lon="1.07065">
        <ele>10.3</ele>
        <time>2021-10-22T04:34:20Z</time>
      </trkpt>
      <trkpt lat="49.42856" lon="1.07059">
        <ele>10.2</ele>
        <time>2021-10-22T04:34:21Z</time>
      </trkpt>
      <trkpt lat="49.42855" lon="1.07052">
        <ele>10.2</ele>
        <time>2021-10-22T04:34:23Z</time>
      </trkpt>
      <trkpt lat="49.42855" lon="1.07049">
        <ele>10.2</ele>
        <time>2021-10-22T04:34:24Z</time>
      </trkpt>
      <trkpt lat="49.42854" lon="1.07042">
        <ele>10.1</ele>
        <time>2021-10-22T04:34:26Z</time>
      </trkpt>
      <trkpt lat="49.42852" lon="1.0704">
        <ele>10.1</ele>
        <time>2021-10-22T04:34:27Z</time>
      </trkpt>
      <trkpt lat="49.42852" lon="1.07038">
        <ele>10.1</ele>
        <time>2021-10-22T04:34:29Z</time>
      </trkpt>
      <trkpt lat="49.42854" lon="1.07035">
        <ele>10.1</ele>
        <time>2021-10-22T04:34:30Z</time>
      </trkpt>
      <trkpt lat="49.42855" lon="1.07034">
        <ele>10.1</ele>
        <time>2021-10-22T04:34:32Z</time>
      </trkpt>
      <trkpt lat="49.42855" lon="1.07034">
        <ele>10.1</ele>
        <time>2021-10-22T04:34:34Z</time>
      </trkpt>
      <trkpt lat="49.42855" lon="1.07034">
        <ele>10.1</ele>
        <time>2021-10-22T04:34:36Z</time>
      </trkpt>
      <trkpt lat="49.42855" lon="1.07033">
        <ele>10.1</ele>
        <time>2021-10-22T04:34:37Z</time>
      </trkpt>
      <trkpt lat="49.42856" lon="1.0703">
        <ele>10.1</ele>
        <time>2021-10-22T04:34:50Z</time>
      </trkpt>
      <trkpt lat="49.42857" lon="1.07029">
        <ele>10.1</ele>
        <time>2021-10-22T04:34:54Z</time>
      </trkpt>
      <trkpt lat="49.42856" lon="1.07028">
        <ele>10.1</ele>
        <time>2021-10-22T04:35:05Z</time>
      </trkpt>
      <trkpt lat="49.42865" lon="1.07025">
        <ele>10</ele>
        <time>2021-10-22T04:35:10Z</time>
      </trkpt>
      <trkpt lat="49.42869" lon="1.07022">
        <ele>10</ele>
        <time>2021-10-22T04:35:15Z</time>
      </trkpt>
      <trkpt lat="49.42868" lon="1.07022">
        <ele>10</ele>
        <time>2021-10-22T04:35:20Z</time>
      </trkpt>
      <trkpt lat="49.42868" lon="1.07022">
        <ele>10</ele>
        <time>2021-10-22T04:35:23Z</time>
      </trkpt>
      <trkpt lat="49.42868" lon="1.07022">
        <ele>10</ele>
        <time>2021-10-22T04:35:25Z</time>
      </trkpt>
      <trkpt lat="49.42868" lon="1.07022">
        <ele>10</ele>
        <time>2021-10-22T04:35:32Z</time>
      </trkpt>
      <trkpt lat="49.42868" lon="1.07022">
        <ele>10</ele>
        <time>2021-10-22T04:35:33Z</time>
      </trkpt>
      <trkpt lat="49.42867" lon="1.07022">
        <ele>10</ele>
        <time>2021-10-22T04:35:35Z</time>
      </trkpt>
      <trkpt lat="49.42867" lon="1.07022">
        <ele>10</ele>
        <time>2021-10-22T04:35:36Z</time>
      </trkpt>
      <trkpt lat="49.42867" lon="1.07022">
        <ele>10</ele>
        <time>2021-10-22T04:35:37Z</time>
      </trkpt>
      <trkpt lat="49.42867" lon="1.07022">
        <ele>10</ele>
        <time>2021-10-22T04:35:38Z</time>
      </trkpt>
      <trkpt lat="49.42867" lon="1.07022">
        <ele>10</ele>
        <time>2021-10-22T04:35:40Z</time>
      </trkpt>
      <trkpt lat="49.42866" lon="1.07022">
        <ele>10</ele>
        <time>2021-10-22T04:35:42Z</time>
      </trkpt>
      <trkpt lat="49.42866" lon="1.07022">
        <ele>10</ele>
        <time>2021-10-22T04:35:44Z</time>
      </trkpt>
      <trkpt lat="49.42866" lon="1.07022">
        <ele>10</ele>
        <time>2021-10-22T04:35:46Z</time>
      </trkpt>
      <trkpt lat="49.42866" lon="1.07023">
        <ele>10</ele>
        <time>2021-10-22T04:35:50Z</time>
      </trkpt>
      <trkpt lat="49.42866" lon="1.07023">
        <ele>10</ele>
        <time>2021-10-22T04:35:51Z</time>
      </trkpt>
      <trkpt lat="49.42865" lon="1.07023">
        <ele>10</ele>
        <time>2021-10-22T04:35:53Z</time>
      </trkpt>
      <trkpt lat="49.42865" lon="1.07023">
        <ele>10</ele>
        <time>2021-10-22T04:35:54Z</time>
      </trkpt>
      <trkpt lat="49.42865" lon="1.07023">
        <ele>10</ele>
        <time>2021-10-22T04:35:55Z</time>
      </trkpt>
      <trkpt lat="49.42865" lon="1.07023">
        <ele>10</ele>
        <time>2021-10-22T04:35:56Z</time>
      </trkpt>
      <trkpt lat="49.42865" lon="1.07023">
        <ele>10</ele>
        <time>2021-10-22T04:35:57Z</time>
      </trkpt>
      <trkpt lat="49.42864" lon="1.07023">
        <ele>10</ele>
        <time>2021-10-22T04:35:59Z</time>
      </trkpt>
      <trkpt lat="49.42864" lon="1.07023">
        <ele>10</ele>
        <time>2021-10-22T04:36:00Z</time>
      </trkpt>
      <trkpt lat="49.42864" lon="1.07023">
        <ele>10</ele>
        <time>2021-10-22T04:36:02Z</time>
      </trkpt>
      <trkpt lat="49.42864" lon="1.07023">
        <ele>10</ele>
        <time>2021-10-22T04:36:04Z</time>
      </trkpt>
      <trkpt lat="49.42864" lon="1.07023">
        <ele>10</ele>
        <time>2021-10-22T04:36:05Z</time>
      </trkpt>
      <trkpt lat="49.42863" lon="1.07023">
        <ele>10</ele>
        <time>2021-10-22T04:36:07Z</time>
      </trkpt>
      <trkpt lat="49.42863" lon="1.07023">
        <ele>10</ele>
        <time>2021-10-22T04:36:09Z</time>
      </trkpt>
      <trkpt lat="49.42863" lon="1.07023">
        <ele>10</ele>
        <time>2021-10-22T04:36:10Z</time>
      </trkpt>
      <trkpt lat="49.42863" lon="1.07023">
        <ele>10</ele>
        <time>2021-10-22T04:36:12Z</time>
      </trkpt>
      <trkpt lat="49.42863" lon="1.07023">
        <ele>10</ele>
        <time>2021-10-22T04:36:13Z</time>
      </trkpt>
      <trkpt lat="49.42862" lon="1.07023">
        <ele>10</ele>
        <time>2021-10-22T04:36:15Z</time>
      </trkpt>
      <trkpt lat="49.42862" lon="1.07023">
        <ele>10</ele>
        <time>2021-10-22T04:36:16Z</time>
      </trkpt>
      <trkpt lat="49.42862" lon="1.07022">
        <ele>10</ele>
        <time>2021-10-22T04:36:18Z</time>
      </trkpt>
      <trkpt lat="49.42861" lon="1.0702">
        <ele>10</ele>
        <time>2021-10-22T04:36:19Z</time>
      </trkpt>
      <trkpt lat="49.42861" lon="1.07019">
        <ele>10</ele>
        <time>2021-10-22T04:36:20Z</time>
      </trkpt>
      <trkpt lat="49.4286" lon="1.07018">
        <ele>10</ele>
        <time>2021-10-22T04:36:21Z</time>
      </trkpt>
      <trkpt lat="49.42859" lon="1.07016">
        <ele>10</ele>
        <time>2021-10-22T04:36:22Z</time>
      </trkpt>
      <trkpt lat="49.42857" lon="1.07012">
        <ele>10</ele>
        <time>2021-10-22T04:36:23Z</time>
      </trkpt>
      <trkpt lat="49.42854" lon="1.07004">
        <ele>9.9</ele>
        <time>2021-10-22T04:36:25Z</time>
      </trkpt>
      <trkpt lat="49.42852" lon="1.06997">
        <ele>9.9</ele>
        <time>2021-10-22T04:36:26Z</time>
      </trkpt>
      <trkpt lat="49.4285" lon="1.0699">
        <ele>9.9</ele>
        <time>2021-10-22T04:36:27Z</time>
      </trkpt>
      <trkpt lat="49.42847" lon="1.06978">
        <ele>9.8</ele>
        <time>2021-10-22T04:36:28Z</time>
      </trkpt>
      <trkpt lat="49.42845" lon="1.0697">
        <ele>9.8</ele>
        <time>2021-10-22T04:36:30Z</time>
      </trkpt>
      <trkpt lat="49.42842" lon="1.06959">
        <ele>9.7</ele>
        <time>2021-10-22T04:36:31Z</time>
      </trkpt>
      <trkpt lat="49.4284" lon="1.06951">
        <ele>9.7</ele>
        <time>2021-10-22T04:36:32Z</time>
      </trkpt>
      <trkpt lat="49.42839" lon="1.0694">
        <ele>9.7</ele>
        <time>2021-10-22T04:36:33Z</time>
      </trkpt>
      <trkpt lat="49.42841" lon="1.06935">
        <ele>9.6</ele>
        <time>2021-10-22T04:36:34Z</time>
      </trkpt>
      <trkpt lat="49.42835" lon="1.06921">
        <ele>9.6</ele>
        <time>2021-10-22T04:36:36Z</time>
      </trkpt>
      <trkpt lat="49.4283" lon="1.06906">
        <ele>9.5</ele>
        <time>2021-10-22T04:36:38Z</time>
      </trkpt>
      <trkpt lat="49.42828" lon="1.06899">
        <ele>9.5</ele>
        <time>2021-10-22T04:36:39Z</time>
      </trkpt>
      <trkpt lat="49.42826" lon="1.06891">
        <ele>9.5</ele>
        <time>2021-10-22T04:36:40Z</time>
      </trkpt>
      <trkpt lat="49.42822" lon="1.06874">
        <ele>9.4</ele>
        <time>2021-10-22T04:36:42Z</time>
      </trkpt>
      <trkpt lat="49.42818" lon="1.06859">
        <ele>9.4</ele>
        <time>2021-10-22T04:36:44Z</time>
      </trkpt>
      <trkpt lat="49.42814" lon="1.06843">
        <ele>9.4</ele>
        <time>2021-10-22T04:36:46Z</time>
      </trkpt>
      <trkpt lat="49.42812" lon="1.06836">
        <ele>9.4</ele>
        <time>2021-10-22T04:36:47Z</time>
      </trkpt>
      <trkpt lat="49.4281" lon="1.06828">
        <ele>9.3</ele>
        <time>2021-10-22T04:36:48Z</time>
      </trkpt>
      <trkpt lat="49.42807" lon="1.06812">
        <ele>9.3</ele>
        <time>2021-10-22T04:36:50Z</time>
      </trkpt>
      <trkpt lat="49.42805" lon="1.06807">
        <ele>9.3</ele>
        <time>2021-10-22T04:36:51Z</time>
      </trkpt>
      <trkpt lat="49.42804" lon="1.06799">
        <ele>9.3</ele>
        <time>2021-10-22T04:36:52Z</time>
      </trkpt>
      <trkpt lat="49.428" lon="1.06782">
        <ele>9.3</ele>
        <time>2021-10-22T04:36:54Z</time>
      </trkpt>
      <trkpt lat="49.42796" lon="1.06765">
        <ele>9.2</ele>
        <time>2021-10-22T04:36:56Z</time>
      </trkpt>
      <trkpt lat="49.42792" lon="1.06747">
        <ele>9.2</ele>
        <time>2021-10-22T04:36:58Z</time>
      </trkpt>
      <trkpt lat="49.4279" lon="1.06738">
        <ele>9.2</ele>
        <time>2021-10-22T04:36:59Z</time>
      </trkpt>
      <trkpt lat="49.42787" lon="1.06722">
        <ele>9.2</ele>
        <time>2021-10-22T04:37:01Z</time>
      </trkpt>
      <trkpt lat="49.42785" lon="1.06713">
        <ele>9.1</ele>
        <time>2021-10-22T04:37:02Z</time>
      </trkpt>
      <trkpt lat="49.4278" lon="1.06696">
        <ele>9.1</ele>
        <time>2021-10-22T04:37:04Z</time>
      </trkpt>
      <trkpt lat="49.42778" lon="1.06687">
        <ele>9.1</ele>
        <time>2021-10-22T04:37:05Z</time>
      </trkpt>
      <trkpt lat="49.42774" lon="1.06671">
        <ele>9.1</ele>
        <time>2021-10-22T04:37:07Z</time>
      </trkpt>
      <trkpt lat="49.4277" lon="1.06656">
        <ele>9.1</ele>
        <time>2021-10-22T04:37:09Z</time>
      </trkpt>
      <trkpt lat="49.42765" lon="1.06641">
        <ele>9</ele>
        <time>2021-10-22T04:37:11Z</time>
      </trkpt>
      <trkpt lat="49.4276" lon="1.06624">
        <ele>9</ele>
        <time>2021-10-22T04:37:13Z</time>
      </trkpt>
      <trkpt lat="49.42758" lon="1.06615">
        <ele>9</ele>
        <time>2021-10-22T04:37:14Z</time>
      </trkpt>
      <trkpt lat="49.42754" lon="1.06599">
        <ele>9</ele>
        <time>2021-10-22T04:37:16Z</time>
      </trkpt>
      <trkpt lat="49.42751" lon="1.06591">
        <ele>9</ele>
        <time>2021-10-22T04:37:17Z</time>
      </trkpt>
      <trkpt lat="49.42747" lon="1.06576">
        <ele>9</ele>
        <time>2021-10-22T04:37:19Z</time>
      </trkpt>
      <trkpt lat="49.42745" lon="1.06567">
        <ele>9</ele>
        <time>2021-10-22T04:37:20Z</time>
      </trkpt>
      <trkpt lat="49.42741" lon="1.0655">
        <ele>9</ele>
        <time>2021-10-22T04:37:22Z</time>
      </trkpt>
      <trkpt lat="49.42737" lon="1.06534">
        <ele>8.9</ele>
        <time>2021-10-22T04:37:24Z</time>
      </trkpt>
      <trkpt lat="49.42738" lon="1.06525">
        <ele>8.9</ele>
        <time>2021-10-22T04:37:25Z</time>
      </trkpt>
      <trkpt lat="49.42736" lon="1.06511">
        <ele>8.9</ele>
        <time>2021-10-22T04:37:27Z</time>
      </trkpt>
      <trkpt lat="49.42735" lon="1.06505">
        <ele>8.9</ele>
        <time>2021-10-22T04:37:28Z</time>
      </trkpt>
      <trkpt lat="49.42731" lon="1.06489">
        <ele>8.9</ele>
        <time>2021-10-22T04:37:30Z</time>
      </trkpt>
      <trkpt lat="49.4273" lon="1.0648">
        <ele>8.9</ele>
        <time>2021-10-22T04:37:31Z</time>
      </trkpt>
      <trkpt lat="49.42726" lon="1.06465">
        <ele>8.8</ele>
        <time>2021-10-22T04:37:33Z</time>
      </trkpt>
      <trkpt lat="49.42722" lon="1.06447">
        <ele>8.8</ele>
        <time>2021-10-22T04:37:35Z</time>
      </trkpt>
      <trkpt lat="49.42718" lon="1.0643">
        <ele>8.8</ele>
        <time>2021-10-22T04:37:37Z</time>
      </trkpt>
      <trkpt lat="49.42715" lon="1.06421">
        <ele>8.8</ele>
        <time>2021-10-22T04:37:38Z</time>
      </trkpt>
      <trkpt lat="49.42712" lon="1.06413">
        <ele>8.9</ele>
        <time>2021-10-22T04:37:39Z</time>
      </trkpt>
      <trkpt lat="49.42708" lon="1.06399">
        <ele>8.9</ele>
        <time>2021-10-22T04:37:41Z</time>
      </trkpt>
      <trkpt lat="49.42705" lon="1.06391">
        <ele>9</ele>
        <time>2021-10-22T04:37:42Z</time>
      </trkpt>
      <trkpt lat="49.42702" lon="1.06376">
        <ele>9.1</ele>
        <time>2021-10-22T04:37:44Z</time>
      </trkpt>
      <trkpt lat="49.427" lon="1.06371">
        <ele>9.1</ele>
        <time>2021-10-22T04:37:45Z</time>
      </trkpt>
      <trkpt lat="49.42698" lon="1.06363">
        <ele>9.2</ele>
        <time>2021-10-22T04:37:46Z</time>
      </trkpt>
      <trkpt lat="49.42695" lon="1.06354">
        <ele>9.2</ele>
        <time>2021-10-22T04:37:47Z</time>
      </trkpt>
      <trkpt lat="49.42693" lon="1.06346">
        <ele>9.3</ele>
        <time>2021-10-22T04:37:48Z</time>
      </trkpt>
      <trkpt lat="49.42688" lon="1.06329">
        <ele>9.3</ele>
        <time>2021-10-22T04:37:50Z</time>
      </trkpt>
      <trkpt lat="49.42686" lon="1.0632">
        <ele>9.3</ele>
        <time>2021-10-22T04:37:51Z</time>
      </trkpt>
      <trkpt lat="49.42681" lon="1.06304">
        <ele>9.3</ele>
        <time>2021-10-22T04:37:53Z</time>
      </trkpt>
      <trkpt lat="49.42679" lon="1.06295">
        <ele>9.3</ele>
        <time>2021-10-22T04:37:54Z</time>
      </trkpt>
      <trkpt lat="49.42677" lon="1.06286">
        <ele>9.3</ele>
        <time>2021-10-22T04:37:55Z</time>
      </trkpt>
      <trkpt lat="49.42675" lon="1.06279">
        <ele>9.3</ele>
        <time>2021-10-22T04:37:56Z</time>
      </trkpt>
      <trkpt lat="49.42672" lon="1.06263">
        <ele>9.3</ele>
        <time>2021-10-22T04:37:58Z</time>
      </trkpt>
      <trkpt lat="49.42669" lon="1.06254">
        <ele>9.3</ele>
        <time>2021-10-22T04:37:59Z</time>
      </trkpt>
      <trkpt lat="49.42665" lon="1.06237">
        <ele>9.3</ele>
        <time>2021-10-22T04:38:01Z</time>
      </trkpt>
      <trkpt lat="49.42663" lon="1.06229">
        <ele>9.3</ele>
        <time>2021-10-22T04:38:02Z</time>
      </trkpt>
      <trkpt lat="49.42659" lon="1.06212">
        <ele>9.3</ele>
        <time>2021-10-22T04:38:04Z</time>
      </trkpt>
      <trkpt lat="49.42655" lon="1.06196">
        <ele>9.4</ele>
        <time>2021-10-22T04:38:06Z</time>
      </trkpt>
      <trkpt lat="49.42651" lon="1.0618">
        <ele>9.4</ele>
        <time>2021-10-22T04:38:08Z</time>
      </trkpt>
      <trkpt lat="49.42649" lon="1.06172">
        <ele>9.4</ele>
        <time>2021-10-22T04:38:09Z</time>
      </trkpt>
      <trkpt lat="49.42645" lon="1.06154">
        <ele>9.5</ele>
        <time>2021-10-22T04:38:11Z</time>
      </trkpt>
      <trkpt lat="49.42643" lon="1.06146">
        <ele>9.5</ele>
        <time>2021-10-22T04:38:12Z</time>
      </trkpt>
      <trkpt lat="49.42639" lon="1.06129">
        <ele>9.5</ele>
        <time>2021-10-22T04:38:14Z</time>
      </trkpt>
      <trkpt lat="49.42637" lon="1.0612">
        <ele>9.5</ele>
        <time>2021-10-22T04:38:15Z</time>
      </trkpt>
      <trkpt lat="49.42634" lon="1.0611">
        <ele>9.5</ele>
        <time>2021-10-22T04:38:16Z</time>
      </trkpt>
      <trkpt lat="49.4263" lon="1.06092">
        <ele>9.5</ele>
        <time>2021-10-22T04:38:18Z</time>
      </trkpt>
      <trkpt lat="49.42628" lon="1.06084">
        <ele>9.5</ele>
        <time>2021-10-22T04:38:19Z</time>
      </trkpt>
      <trkpt lat="49.42623" lon="1.06067">
        <ele>9.6</ele>
        <time>2021-10-22T04:38:21Z</time>
      </trkpt>
      <trkpt lat="49.42619" lon="1.06051">
        <ele>9.6</ele>
        <time>2021-10-22T04:38:23Z</time>
      </trkpt>
      <trkpt lat="49.42615" lon="1.06035">
        <ele>9.6</ele>
        <time>2021-10-22T04:38:25Z</time>
      </trkpt>
      <trkpt lat="49.42613" lon="1.06027">
        <ele>9.7</ele>
        <time>2021-10-22T04:38:26Z</time>
      </trkpt>
      <trkpt lat="49.42611" lon="1.06019">
        <ele>9.7</ele>
        <time>2021-10-22T04:38:27Z</time>
      </trkpt>
      <trkpt lat="49.42606" lon="1.06003">
        <ele>9.8</ele>
        <time>2021-10-22T04:38:29Z</time>
      </trkpt>
      <trkpt lat="49.42604" lon="1.05994">
        <ele>9.9</ele>
        <time>2021-10-22T04:38:30Z</time>
      </trkpt>
      <trkpt lat="49.42601" lon="1.05978">
        <ele>10</ele>
        <time>2021-10-22T04:38:32Z</time>
      </trkpt>
      <trkpt lat="49.42598" lon="1.05961">
        <ele>10.1</ele>
        <time>2021-10-22T04:38:34Z</time>
      </trkpt>
      <trkpt lat="49.42595" lon="1.05945">
        <ele>10.2</ele>
        <time>2021-10-22T04:38:36Z</time>
      </trkpt>
      <trkpt lat="49.42593" lon="1.05936">
        <ele>10.3</ele>
        <time>2021-10-22T04:38:37Z</time>
      </trkpt>
      <trkpt lat="49.42589" lon="1.05921">
        <ele>10.4</ele>
        <time>2021-10-22T04:38:39Z</time>
      </trkpt>
      <trkpt lat="49.42587" lon="1.05912">
        <ele>10.4</ele>
        <time>2021-10-22T04:38:40Z</time>
      </trkpt>
      <trkpt lat="49.42581" lon="1.05897">
        <ele>10.4</ele>
        <time>2021-10-22T04:38:42Z</time>
      </trkpt>
      <trkpt lat="49.42573" lon="1.0588">
        <ele>10.4</ele>
        <time>2021-10-22T04:38:44Z</time>
      </trkpt>
      <trkpt lat="49.42568" lon="1.05865">
        <ele>10.4</ele>
        <time>2021-10-22T04:38:46Z</time>
      </trkpt>
      <trkpt lat="49.42565" lon="1.05849">
        <ele>10.5</ele>
        <time>2021-10-22T04:38:48Z</time>
      </trkpt>
      <trkpt lat="49.42563" lon="1.05842">
        <ele>10.5</ele>
        <time>2021-10-22T04:38:49Z</time>
      </trkpt>
      <trkpt lat="49.42559" lon="1.05824">
        <ele>10.5</ele>
        <time>2021-10-22T04:38:51Z</time>
      </trkpt>
      <trkpt lat="49.42557" lon="1.05815">
        <ele>10.5</ele>
        <time>2021-10-22T04:38:52Z</time>
      </trkpt>
      <trkpt lat="49.42552" lon="1.05797">
        <ele>10.7</ele>
        <time>2021-10-22T04:38:54Z</time>
      </trkpt>
      <trkpt lat="49.4255" lon="1.05788">
        <ele>10.7</ele>
        <time>2021-10-22T04:38:55Z</time>
      </trkpt>
      <trkpt lat="49.42545" lon="1.05771">
        <ele>10.8</ele>
        <time>2021-10-22T04:38:57Z</time>
      </trkpt>
      <trkpt lat="49.42542" lon="1.05755">
        <ele>10.9</ele>
        <time>2021-10-22T04:38:59Z</time>
      </trkpt>
      <trkpt lat="49.42539" lon="1.05746">
        <ele>10.9</ele>
        <time>2021-10-22T04:39:00Z</time>
      </trkpt>
      <trkpt lat="49.42537" lon="1.05737">
        <ele>10.9</ele>
        <time>2021-10-22T04:39:01Z</time>
      </trkpt>
      <trkpt lat="49.42534" lon="1.0572">
        <ele>10.9</ele>
        <time>2021-10-22T04:39:03Z</time>
      </trkpt>
      <trkpt lat="49.42529" lon="1.05703">
        <ele>11</ele>
        <time>2021-10-22T04:39:05Z</time>
      </trkpt>
      <trkpt lat="49.42527" lon="1.05693">
        <ele>11</ele>
        <time>2021-10-22T04:39:06Z</time>
      </trkpt>
      <trkpt lat="49.42525" lon="1.05683">
        <ele>11.1</ele>
        <time>2021-10-22T04:39:07Z</time>
      </trkpt>
      <trkpt lat="49.42522" lon="1.05665">
        <ele>11.1</ele>
        <time>2021-10-22T04:39:09Z</time>
      </trkpt>
      <trkpt lat="49.4252" lon="1.05656">
        <ele>11.1</ele>
        <time>2021-10-22T04:39:10Z</time>
      </trkpt>
      <trkpt lat="49.42519" lon="1.05647">
        <ele>11.1</ele>
        <time>2021-10-22T04:39:11Z</time>
      </trkpt>
      <trkpt lat="49.42516" lon="1.05635">
        <ele>11.1</ele>
        <time>2021-10-22T04:39:13Z</time>
      </trkpt>
      <trkpt lat="49.42514" lon="1.05625">
        <ele>11.1</ele>
        <time>2021-10-22T04:39:15Z</time>
      </trkpt>
      <trkpt lat="49.42513" lon="1.0562">
        <ele>11.1</ele>
        <time>2021-10-22T04:39:16Z</time>
      </trkpt>
      <trkpt lat="49.42512" lon="1.05612">
        <ele>11.1</ele>
        <time>2021-10-22T04:39:18Z</time>
      </trkpt>
      <trkpt lat="49.4251" lon="1.05605">
        <ele>11.1</ele>
        <time>2021-10-22T04:39:20Z</time>
      </trkpt>
      <trkpt lat="49.42507" lon="1.05602">
        <ele>11.1</ele>
        <time>2021-10-22T04:39:21Z</time>
      </trkpt>
      <trkpt lat="49.42503" lon="1.05597">
        <ele>11.1</ele>
        <time>2021-10-22T04:39:23Z</time>
      </trkpt>
      <trkpt lat="49.42498" lon="1.05593">
        <ele>11.1</ele>
        <time>2021-10-22T04:39:24Z</time>
      </trkpt>
      <trkpt lat="49.42489" lon="1.05583">
        <ele>11.2</ele>
        <time>2021-10-22T04:39:26Z</time>
      </trkpt>
      <trkpt lat="49.4248" lon="1.05575">
        <ele>11.2</ele>
        <time>2021-10-22T04:39:28Z</time>
      </trkpt>
      <trkpt lat="49.42476" lon="1.05572">
        <ele>11.2</ele>
        <time>2021-10-22T04:39:29Z</time>
      </trkpt>
      <trkpt lat="49.42471" lon="1.05568">
        <ele>11.2</ele>
        <time>2021-10-22T04:39:30Z</time>
      </trkpt>
      <trkpt lat="49.42462" lon="1.05557">
        <ele>11.2</ele>
        <time>2021-10-22T04:39:32Z</time>
      </trkpt>
      <trkpt lat="49.42457" lon="1.05551">
        <ele>11.2</ele>
        <time>2021-10-22T04:39:33Z</time>
      </trkpt>
      <trkpt lat="49.42452" lon="1.05546">
        <ele>11.2</ele>
        <time>2021-10-22T04:39:34Z</time>
      </trkpt>
      <trkpt lat="49.42447" lon="1.05542">
        <ele>11.2</ele>
        <time>2021-10-22T04:39:35Z</time>
      </trkpt>
      <trkpt lat="49.42437" lon="1.05532">
        <ele>11.3</ele>
        <time>2021-10-22T04:39:37Z</time>
      </trkpt>
      <trkpt lat="49.42431" lon="1.05527">
        <ele>11.3</ele>
        <time>2021-10-22T04:39:38Z</time>
      </trkpt>
      <trkpt lat="49.42421" lon="1.05517">
        <ele>11.4</ele>
        <time>2021-10-22T04:39:40Z</time>
      </trkpt>
      <trkpt lat="49.42416" lon="1.05512">
        <ele>11.5</ele>
        <time>2021-10-22T04:39:41Z</time>
      </trkpt>
      <trkpt lat="49.42407" lon="1.05502">
        <ele>11.6</ele>
        <time>2021-10-22T04:39:43Z</time>
      </trkpt>
      <trkpt lat="49.42402" lon="1.05497">
        <ele>11.7</ele>
        <time>2021-10-22T04:39:44Z</time>
      </trkpt>
      <trkpt lat="49.42393" lon="1.05486">
        <ele>11.8</ele>
        <time>2021-10-22T04:39:46Z</time>
      </trkpt>
      <trkpt lat="49.42384" lon="1.05477">
        <ele>12</ele>
        <time>2021-10-22T04:39:48Z</time>
      </trkpt>
      <trkpt lat="49.42375" lon="1.05467">
        <ele>12.2</ele>
        <time>2021-10-22T04:39:50Z</time>
      </trkpt>
      <trkpt lat="49.4237" lon="1.05462">
        <ele>12.3</ele>
        <time>2021-10-22T04:39:51Z</time>
      </trkpt>
      <trkpt lat="49.4236" lon="1.05451">
        <ele>12.7</ele>
        <time>2021-10-22T04:39:53Z</time>
      </trkpt>
      <trkpt lat="49.42355" lon="1.05446">
        <ele>12.9</ele>
        <time>2021-10-22T04:39:54Z</time>
      </trkpt>
      <trkpt lat="49.4235" lon="1.05441">
        <ele>13.1</ele>
        <time>2021-10-22T04:39:55Z</time>
      </trkpt>
      <trkpt lat="49.42341" lon="1.05432">
        <ele>13.4</ele>
        <time>2021-10-22T04:39:57Z</time>
      </trkpt>
      <trkpt lat="49.42333" lon="1.05423">
        <ele>13.6</ele>
        <time>2021-10-22T04:39:59Z</time>
      </trkpt>
      <trkpt lat="49.42328" lon="1.05417">
        <ele>13.7</ele>
        <time>2021-10-22T04:40:00Z</time>
      </trkpt>
      <trkpt lat="49.42319" lon="1.05409">
        <ele>13.9</ele>
        <time>2021-10-22T04:40:02Z</time>
      </trkpt>
      <trkpt lat="49.42315" lon="1.05404">
        <ele>14</ele>
        <time>2021-10-22T04:40:03Z</time>
      </trkpt>
      <trkpt lat="49.42311" lon="1.05399">
        <ele>14.1</ele>
        <time>2021-10-22T04:40:04Z</time>
      </trkpt>
      <trkpt lat="49.42301" lon="1.05391">
        <ele>14.3</ele>
        <time>2021-10-22T04:40:06Z</time>
      </trkpt>
      <trkpt lat="49.42297" lon="1.05386">
        <ele>14.4</ele>
        <time>2021-10-22T04:40:07Z</time>
      </trkpt>
      <trkpt lat="49.42293" lon="1.0538">
        <ele>14.5</ele>
        <time>2021-10-22T04:40:08Z</time>
      </trkpt>
      <trkpt lat="49.42284" lon="1.0537">
        <ele>14.7</ele>
        <time>2021-10-22T04:40:10Z</time>
      </trkpt>
      <trkpt lat="49.42279" lon="1.05365">
        <ele>14.8</ele>
        <time>2021-10-22T04:40:11Z</time>
      </trkpt>
      <trkpt lat="49.42275" lon="1.0536">
        <ele>14.9</ele>
        <time>2021-10-22T04:40:12Z</time>
      </trkpt>
      <trkpt lat="49.42266" lon="1.05351">
        <ele>15.1</ele>
        <time>2021-10-22T04:40:14Z</time>
      </trkpt>
      <trkpt lat="49.42261" lon="1.05346">
        <ele>15.2</ele>
        <time>2021-10-22T04:40:15Z</time>
      </trkpt>
      <trkpt lat="49.42257" lon="1.05341">
        <ele>15.3</ele>
        <time>2021-10-22T04:40:16Z</time>
      </trkpt>
      <trkpt lat="49.42248" lon="1.05331">
        <ele>15.5</ele>
        <time>2021-10-22T04:40:18Z</time>
      </trkpt>
      <trkpt lat="49.42243" lon="1.05326">
        <ele>15.6</ele>
        <time>2021-10-22T04:40:19Z</time>
      </trkpt>
      <trkpt lat="49.42238" lon="1.0532">
        <ele>15.7</ele>
        <time>2021-10-22T04:40:20Z</time>
      </trkpt>
      <trkpt lat="49.42228" lon="1.0531">
        <ele>15.9</ele>
        <time>2021-10-22T04:40:22Z</time>
      </trkpt>
      <trkpt lat="49.42219" lon="1.05298">
        <ele>16.2</ele>
        <time>2021-10-22T04:40:24Z</time>
      </trkpt>
      <trkpt lat="49.42213" lon="1.05292">
        <ele>16.3</ele>
        <time>2021-10-22T04:40:25Z</time>
      </trkpt>
      <trkpt lat="49.42209" lon="1.05287">
        <ele>16.4</ele>
        <time>2021-10-22T04:40:26Z</time>
      </trkpt>
      <trkpt lat="49.42204" lon="1.05282">
        <ele>16.5</ele>
        <time>2021-10-22T04:40:27Z</time>
      </trkpt>
      <trkpt lat="49.42194" lon="1.05271">
        <ele>16.7</ele>
        <time>2021-10-22T04:40:29Z</time>
      </trkpt>
      <trkpt lat="49.42184" lon="1.05262">
        <ele>16.8</ele>
        <time>2021-10-22T04:40:31Z</time>
      </trkpt>
      <trkpt lat="49.4218" lon="1.05257">
        <ele>16.8</ele>
        <time>2021-10-22T04:40:32Z</time>
      </trkpt>
      <trkpt lat="49.42172" lon="1.05248">
        <ele>16.9</ele>
        <time>2021-10-22T04:40:34Z</time>
      </trkpt>
      <trkpt lat="49.42163" lon="1.05237">
        <ele>17</ele>
        <time>2021-10-22T04:40:36Z</time>
      </trkpt>
      <trkpt lat="49.42154" lon="1.05227">
        <ele>17.2</ele>
        <time>2021-10-22T04:40:38Z</time>
      </trkpt>
      <trkpt lat="49.4215" lon="1.05221">
        <ele>17.3</ele>
        <time>2021-10-22T04:40:39Z</time>
      </trkpt>
      <trkpt lat="49.42142" lon="1.05211">
        <ele>17.5</ele>
        <time>2021-10-22T04:40:41Z</time>
      </trkpt>
      <trkpt lat="49.42139" lon="1.05205">
        <ele>17.7</ele>
        <time>2021-10-22T04:40:42Z</time>
      </trkpt>
      <trkpt lat="49.42137" lon="1.05193">
        <ele>18</ele>
        <time>2021-10-22T04:40:44Z</time>
      </trkpt>
      <trkpt lat="49.42138" lon="1.05184">
        <ele>18.2</ele>
        <time>2021-10-22T04:40:46Z</time>
      </trkpt>
      <trkpt lat="49.4214" lon="1.05179">
        <ele>18.3</ele>
        <time>2021-10-22T04:40:48Z</time>
      </trkpt>
      <trkpt lat="49.42141" lon="1.05177">
        <ele>18.4</ele>
        <time>2021-10-22T04:40:50Z</time>
      </trkpt>
      <trkpt lat="49.42144" lon="1.05176">
        <ele>18.5</ele>
        <time>2021-10-22T04:40:52Z</time>
      </trkpt>
      <trkpt lat="49.42147" lon="1.05172">
        <ele>18.6</ele>
        <time>2021-10-22T04:40:53Z</time>
      </trkpt>
      <trkpt lat="49.42149" lon="1.05167">
        <ele>18.8</ele>
        <time>2021-10-22T04:40:54Z</time>
      </trkpt>
      <trkpt lat="49.42154" lon="1.05157">
        <ele>18.9</ele>
        <time>2021-10-22T04:40:56Z</time>
      </trkpt>
      <trkpt lat="49.42159" lon="1.05144">
        <ele>19</ele>
        <time>2021-10-22T04:40:58Z</time>
      </trkpt>
      <trkpt lat="49.42162" lon="1.05131">
        <ele>19.1</ele>
        <time>2021-10-22T04:41:00Z</time>
      </trkpt>
      <trkpt lat="49.42162" lon="1.05123">
        <ele>19.2</ele>
        <time>2021-10-22T04:41:01Z</time>
      </trkpt>
      <trkpt lat="49.42161" lon="1.05109">
        <ele>19.3</ele>
        <time>2021-10-22T04:41:03Z</time>
      </trkpt>
      <trkpt lat="49.42159" lon="1.05096">
        <ele>19.4</ele>
        <time>2021-10-22T04:41:04Z</time>
      </trkpt>
      <trkpt lat="49.42156" lon="1.05089">
        <ele>19.5</ele>
        <time>2021-10-22T04:41:05Z</time>
      </trkpt>
      <trkpt lat="49.42151" lon="1.05083">
        <ele>19.6</ele>
        <time>2021-10-22T04:41:07Z</time>
      </trkpt>
      <trkpt lat="49.42147" lon="1.05079">
        <ele>19.7</ele>
        <time>2021-10-22T04:41:08Z</time>
      </trkpt>
      <trkpt lat="49.42142" lon="1.05076">
        <ele>19.7</ele>
        <time>2021-10-22T04:41:09Z</time>
      </trkpt>
      <trkpt lat="49.42131" lon="1.05075">
        <ele>19.8</ele>
        <time>2021-10-22T04:41:11Z</time>
      </trkpt>
      <trkpt lat="49.42121" lon="1.05078">
        <ele>20</ele>
        <time>2021-10-22T04:41:13Z</time>
      </trkpt>
      <trkpt lat="49.4211" lon="1.05076">
        <ele>20</ele>
        <time>2021-10-22T04:41:15Z</time>
      </trkpt>
      <trkpt lat="49.421" lon="1.05066">
        <ele>20</ele>
        <time>2021-10-22T04:41:17Z</time>
      </trkpt>
      <trkpt lat="49.42092" lon="1.05056">
        <ele>20.1</ele>
        <time>2021-10-22T04:41:19Z</time>
      </trkpt>
      <trkpt lat="49.42082" lon="1.05047">
        <ele>20.1</ele>
        <time>2021-10-22T04:41:21Z</time>
      </trkpt>
      <trkpt lat="49.42077" lon="1.05043">
        <ele>20.1</ele>
        <time>2021-10-22T04:41:22Z</time>
      </trkpt>
      <trkpt lat="49.42067" lon="1.05033">
        <ele>20.2</ele>
        <time>2021-10-22T04:41:24Z</time>
      </trkpt>
      <trkpt lat="49.42062" lon="1.05029">
        <ele>20.3</ele>
        <time>2021-10-22T04:41:25Z</time>
      </trkpt>
      <trkpt lat="49.42053" lon="1.05021">
        <ele>20.4</ele>
        <time>2021-10-22T04:41:27Z</time>
      </trkpt>
      <trkpt lat="49.42044" lon="1.05012">
        <ele>20.5</ele>
        <time>2021-10-22T04:41:29Z</time>
      </trkpt>
      <trkpt lat="49.4204" lon="1.05007">
        <ele>20.6</ele>
        <time>2021-10-22T04:41:30Z</time>
      </trkpt>
      <trkpt lat="49.42031" lon="1.05">
        <ele>20.7</ele>
        <time>2021-10-22T04:41:32Z</time>
      </trkpt>
      <trkpt lat="49.42021" lon="1.04991">
        <ele>20.9</ele>
        <time>2021-10-22T04:41:34Z</time>
      </trkpt>
      <trkpt lat="49.42012" lon="1.04981">
        <ele>21</ele>
        <time>2021-10-22T04:41:36Z</time>
      </trkpt>
      <trkpt lat="49.42008" lon="1.04976">
        <ele>21.1</ele>
        <time>2021-10-22T04:41:37Z</time>
      </trkpt>
      <trkpt lat="49.42" lon="1.04966">
        <ele>21.3</ele>
        <time>2021-10-22T04:41:39Z</time>
      </trkpt>
      <trkpt lat="49.41992" lon="1.04955">
        <ele>21.5</ele>
        <time>2021-10-22T04:41:41Z</time>
      </trkpt>
      <trkpt lat="49.41983" lon="1.04944">
        <ele>21.6</ele>
        <time>2021-10-22T04:41:43Z</time>
      </trkpt>
      <trkpt lat="49.41979" lon="1.04939">
        <ele>21.6</ele>
        <time>2021-10-22T04:41:44Z</time>
      </trkpt>
      <trkpt lat="49.4197" lon="1.04928">
        <ele>21.7</ele>
        <time>2021-10-22T04:41:46Z</time>
      </trkpt>
      <trkpt lat="49.41961" lon="1.04918">
        <ele>21.8</ele>
        <time>2021-10-22T04:41:48Z</time>
      </trkpt>
      <trkpt lat="49.41952" lon="1.04906">
        <ele>21.8</ele>
        <time>2021-10-22T04:41:50Z</time>
      </trkpt>
      <trkpt lat="49.41948" lon="1.04901">
        <ele>21.9</ele>
        <time>2021-10-22T04:41:51Z</time>
      </trkpt>
      <trkpt lat="49.41943" lon="1.04895">
        <ele>21.9</ele>
        <time>2021-10-22T04:41:52Z</time>
      </trkpt>
      <trkpt lat="49.41934" lon="1.04884">
        <ele>21.9</ele>
        <time>2021-10-22T04:41:54Z</time>
      </trkpt>
      <trkpt lat="49.41929" lon="1.04878">
        <ele>21.8</ele>
        <time>2021-10-22T04:41:55Z</time>
      </trkpt>
      <trkpt lat="49.41924" lon="1.04873">
        <ele>21.8</ele>
        <time>2021-10-22T04:41:56Z</time>
      </trkpt>
      <trkpt lat="49.41914" lon="1.04861">
        <ele>21.7</ele>
        <time>2021-10-22T04:41:58Z</time>
      </trkpt>
      <trkpt lat="49.41904" lon="1.0485">
        <ele>21.6</ele>
        <time>2021-10-22T04:42:00Z</time>
      </trkpt>
      <trkpt lat="49.41899" lon="1.04844">
        <ele>21.6</ele>
        <time>2021-10-22T04:42:01Z</time>
      </trkpt>
      <trkpt lat="49.41894" lon="1.04839">
        <ele>21.6</ele>
        <time>2021-10-22T04:42:02Z</time>
      </trkpt>
      <trkpt lat="49.41883" lon="1.04828">
        <ele>21.6</ele>
        <time>2021-10-22T04:42:04Z</time>
      </trkpt>
      <trkpt lat="49.41878" lon="1.04822">
        <ele>21.5</ele>
        <time>2021-10-22T04:42:05Z</time>
      </trkpt>
      <trkpt lat="49.41868" lon="1.04812">
        <ele>21.4</ele>
        <time>2021-10-22T04:42:07Z</time>
      </trkpt>
      <trkpt lat="49.41863" lon="1.04807">
        <ele>21.4</ele>
        <time>2021-10-22T04:42:08Z</time>
      </trkpt>
      <trkpt lat="49.41857" lon="1.04802">
        <ele>21.3</ele>
        <time>2021-10-22T04:42:09Z</time>
      </trkpt>
      <trkpt lat="49.41847" lon="1.04792">
        <ele>21.2</ele>
        <time>2021-10-22T04:42:11Z</time>
      </trkpt>
      <trkpt lat="49.41842" lon="1.04787">
        <ele>21.1</ele>
        <time>2021-10-22T04:42:12Z</time>
      </trkpt>
      <trkpt lat="49.41831" lon="1.04777">
        <ele>21</ele>
        <time>2021-10-22T04:42:14Z</time>
      </trkpt>
      <trkpt lat="49.41826" lon="1.04771">
        <ele>21</ele>
        <time>2021-10-22T04:42:15Z</time>
      </trkpt>
      <trkpt lat="49.41815" lon="1.0476">
        <ele>20.8</ele>
        <time>2021-10-22T04:42:17Z</time>
      </trkpt>
      <trkpt lat="49.41805" lon="1.04749">
        <ele>20.7</ele>
        <time>2021-10-22T04:42:19Z</time>
      </trkpt>
      <trkpt lat="49.41799" lon="1.04744">
        <ele>20.7</ele>
        <time>2021-10-22T04:42:20Z</time>
      </trkpt>
      <trkpt lat="49.41794" lon="1.04738">
        <ele>20.7</ele>
        <time>2021-10-22T04:42:21Z</time>
      </trkpt>
      <trkpt lat="49.41783" lon="1.04727">
        <ele>20.6</ele>
        <time>2021-10-22T04:42:23Z</time>
      </trkpt>
      <trkpt lat="49.41778" lon="1.04721">
        <ele>20.7</ele>
        <time>2021-10-22T04:42:24Z</time>
      </trkpt>
      <trkpt lat="49.41767" lon="1.0471">
        <ele>20.8</ele>
        <time>2021-10-22T04:42:26Z</time>
      </trkpt>
      <trkpt lat="49.41762" lon="1.04704">
        <ele>20.8</ele>
        <time>2021-10-22T04:42:27Z</time>
      </trkpt>
      <trkpt lat="49.41757" lon="1.04698">
        <ele>20.8</ele>
        <time>2021-10-22T04:42:28Z</time>
      </trkpt>
      <trkpt lat="49.41751" lon="1.04693">
        <ele>20.7</ele>
        <time>2021-10-22T04:42:29Z</time>
      </trkpt>
      <trkpt lat="49.4174" lon="1.04683">
        <ele>20.5</ele>
        <time>2021-10-22T04:42:31Z</time>
      </trkpt>
      <trkpt lat="49.41735" lon="1.04678">
        <ele>20.5</ele>
        <time>2021-10-22T04:42:32Z</time>
      </trkpt>
      <trkpt lat="49.41724" lon="1.04666">
        <ele>20.3</ele>
        <time>2021-10-22T04:42:34Z</time>
      </trkpt>
      <trkpt lat="49.41713" lon="1.04655">
        <ele>20</ele>
        <time>2021-10-22T04:42:36Z</time>
      </trkpt>
      <trkpt lat="49.41707" lon="1.04649">
        <ele>19.9</ele>
        <time>2021-10-22T04:42:37Z</time>
      </trkpt>
      <trkpt lat="49.41701" lon="1.04643">
        <ele>19.8</ele>
        <time>2021-10-22T04:42:38Z</time>
      </trkpt>
      <trkpt lat="49.4169" lon="1.04631">
        <ele>19.7</ele>
        <time>2021-10-22T04:42:40Z</time>
      </trkpt>
      <trkpt lat="49.41684" lon="1.04624">
        <ele>19.6</ele>
        <time>2021-10-22T04:42:41Z</time>
      </trkpt>
      <trkpt lat="49.41679" lon="1.04618">
        <ele>19.6</ele>
        <time>2021-10-22T04:42:42Z</time>
      </trkpt>
      <trkpt lat="49.41668" lon="1.04606">
        <ele>19.5</ele>
        <time>2021-10-22T04:42:44Z</time>
      </trkpt>
      <trkpt lat="49.41663" lon="1.04601">
        <ele>19.4</ele>
        <time>2021-10-22T04:42:45Z</time>
      </trkpt>
      <trkpt lat="49.41657" lon="1.04595">
        <ele>19.3</ele>
        <time>2021-10-22T04:42:46Z</time>
      </trkpt>
      <trkpt lat="49.41646" lon="1.04584">
        <ele>19.1</ele>
        <time>2021-10-22T04:42:48Z</time>
      </trkpt>
      <trkpt lat="49.41641" lon="1.04577">
        <ele>19</ele>
        <time>2021-10-22T04:42:49Z</time>
      </trkpt>
      <trkpt lat="49.41631" lon="1.04564">
        <ele>18.9</ele>
        <time>2021-10-22T04:42:51Z</time>
      </trkpt>
      <trkpt lat="49.4162" lon="1.04552">
        <ele>18.8</ele>
        <time>2021-10-22T04:42:53Z</time>
      </trkpt>
      <trkpt lat="49.41609" lon="1.04539">
        <ele>18.7</ele>
        <time>2021-10-22T04:42:55Z</time>
      </trkpt>
      <trkpt lat="49.41605" lon="1.04533">
        <ele>18.6</ele>
        <time>2021-10-22T04:42:56Z</time>
      </trkpt>
      <trkpt lat="49.416" lon="1.04526">
        <ele>18.5</ele>
        <time>2021-10-22T04:42:57Z</time>
      </trkpt>
      <trkpt lat="49.4159" lon="1.04512">
        <ele>18.4</ele>
        <time>2021-10-22T04:42:59Z</time>
      </trkpt>
      <trkpt lat="49.4158" lon="1.04499">
        <ele>18.2</ele>
        <time>2021-10-22T04:43:01Z</time>
      </trkpt>
      <trkpt lat="49.4157" lon="1.04485">
        <ele>18.1</ele>
        <time>2021-10-22T04:43:03Z</time>
      </trkpt>
      <trkpt lat="49.4156" lon="1.04472">
        <ele>18</ele>
        <time>2021-10-22T04:43:05Z</time>
      </trkpt>
      <trkpt lat="49.41555" lon="1.04466">
        <ele>17.9</ele>
        <time>2021-10-22T04:43:06Z</time>
      </trkpt>
      <trkpt lat="49.4155" lon="1.0446">
        <ele>17.9</ele>
        <time>2021-10-22T04:43:07Z</time>
      </trkpt>
      <trkpt lat="49.41541" lon="1.04447">
        <ele>17.8</ele>
        <time>2021-10-22T04:43:09Z</time>
      </trkpt>
      <trkpt lat="49.41535" lon="1.04441">
        <ele>17.7</ele>
        <time>2021-10-22T04:43:10Z</time>
      </trkpt>
      <trkpt lat="49.4153" lon="1.04436">
        <ele>17.7</ele>
        <time>2021-10-22T04:43:11Z</time>
      </trkpt>
      <trkpt lat="49.41525" lon="1.04431">
        <ele>17.7</ele>
        <time>2021-10-22T04:43:12Z</time>
      </trkpt>
      <trkpt lat="49.41515" lon="1.0442">
        <ele>17.8</ele>
        <time>2021-10-22T04:43:14Z</time>
      </trkpt>
      <trkpt lat="49.41505" lon="1.04412">
        <ele>17.9</ele>
        <time>2021-10-22T04:43:16Z</time>
      </trkpt>
      <trkpt lat="49.415" lon="1.04409">
        <ele>18</ele>
        <time>2021-10-22T04:43:17Z</time>
      </trkpt>
      <trkpt lat="49.41489" lon="1.04405">
        <ele>18.2</ele>
        <time>2021-10-22T04:43:19Z</time>
      </trkpt>
      <trkpt lat="49.41478" lon="1.04395">
        <ele>18.4</ele>
        <time>2021-10-22T04:43:21Z</time>
      </trkpt>
      <trkpt lat="49.41474" lon="1.04388">
        <ele>18.3</ele>
        <time>2021-10-22T04:43:22Z</time>
      </trkpt>
      <trkpt lat="49.4147" lon="1.04381">
        <ele>18.3</ele>
        <time>2021-10-22T04:43:23Z</time>
      </trkpt>
      <trkpt lat="49.41461" lon="1.0437">
        <ele>18.2</ele>
        <time>2021-10-22T04:43:25Z</time>
      </trkpt>
      <trkpt lat="49.41449" lon="1.04366">
        <ele>18.1</ele>
        <time>2021-10-22T04:43:27Z</time>
      </trkpt>
      <trkpt lat="49.41443" lon="1.04366">
        <ele>18.1</ele>
        <time>2021-10-22T04:43:28Z</time>
      </trkpt>
      <trkpt lat="49.41438" lon="1.04367">
        <ele>18.2</ele>
        <time>2021-10-22T04:43:29Z</time>
      </trkpt>
      <trkpt lat="49.41427" lon="1.04373">
        <ele>18.6</ele>
        <time>2021-10-22T04:43:31Z</time>
      </trkpt>
      <trkpt lat="49.41422" lon="1.04378">
        <ele>18.7</ele>
        <time>2021-10-22T04:43:32Z</time>
      </trkpt>
      <trkpt lat="49.41418" lon="1.04384">
        <ele>18.8</ele>
        <time>2021-10-22T04:43:33Z</time>
      </trkpt>
      <trkpt lat="49.41413" lon="1.04397">
        <ele>19.1</ele>
        <time>2021-10-22T04:43:35Z</time>
      </trkpt>
      <trkpt lat="49.41411" lon="1.04408">
        <ele>19.3</ele>
        <time>2021-10-22T04:43:37Z</time>
      </trkpt>
      <trkpt lat="49.41407" lon="1.04417">
        <ele>19.5</ele>
        <time>2021-10-22T04:43:39Z</time>
      </trkpt>
      <trkpt lat="49.41405" lon="1.04424">
        <ele>20.1</ele>
        <time>2021-10-22T04:43:41Z</time>
      </trkpt>
      <trkpt lat="49.41403" lon="1.04429">
        <ele>20.1</ele>
        <time>2021-10-22T04:43:42Z</time>
      </trkpt>
      <trkpt lat="49.41397" lon="1.04427">
        <ele>20.1</ele>
        <time>2021-10-22T04:43:44Z</time>
      </trkpt>
      <trkpt lat="49.41394" lon="1.04424">
        <ele>20.1</ele>
        <time>2021-10-22T04:43:45Z</time>
      </trkpt>
      <trkpt lat="49.41388" lon="1.04416">
        <ele>20.1</ele>
        <time>2021-10-22T04:43:47Z</time>
      </trkpt>
      <trkpt lat="49.41385" lon="1.04411">
        <ele>20.1</ele>
        <time>2021-10-22T04:43:48Z</time>
      </trkpt>
      <trkpt lat="49.41382" lon="1.04407">
        <ele>20.1</ele>
        <time>2021-10-22T04:43:49Z</time>
      </trkpt>
      <trkpt lat="49.41378" lon="1.04403">
        <ele>20.1</ele>
        <time>2021-10-22T04:43:50Z</time>
      </trkpt>
      <trkpt lat="49.4137" lon="1.04394">
        <ele>20.2</ele>
        <time>2021-10-22T04:43:52Z</time>
      </trkpt>
      <trkpt lat="49.41362" lon="1.04383">
        <ele>20.3</ele>
        <time>2021-10-22T04:43:54Z</time>
      </trkpt>
      <trkpt lat="49.41357" lon="1.04378">
        <ele>20.4</ele>
        <time>2021-10-22T04:43:55Z</time>
      </trkpt>
      <trkpt lat="49.41349" lon="1.04369">
        <ele>20.5</ele>
        <time>2021-10-22T04:43:57Z</time>
      </trkpt>
      <trkpt lat="49.41342" lon="1.04359">
        <ele>20.6</ele>
        <time>2021-10-22T04:43:59Z</time>
      </trkpt>
      <trkpt lat="49.41338" lon="1.04355">
        <ele>20.7</ele>
        <time>2021-10-22T04:44:00Z</time>
      </trkpt>
      <trkpt lat="49.4133" lon="1.04347">
        <ele>20.8</ele>
        <time>2021-10-22T04:44:02Z</time>
      </trkpt>
      <trkpt lat="49.41321" lon="1.04338">
        <ele>21</ele>
        <time>2021-10-22T04:44:04Z</time>
      </trkpt>
      <trkpt lat="49.41317" lon="1.04335">
        <ele>21.1</ele>
        <time>2021-10-22T04:44:05Z</time>
      </trkpt>
      <trkpt lat="49.41309" lon="1.04327">
        <ele>21.2</ele>
        <time>2021-10-22T04:44:07Z</time>
      </trkpt>
      <trkpt lat="49.41303" lon="1.04322">
        <ele>21.3</ele>
        <time>2021-10-22T04:44:08Z</time>
      </trkpt>
      <trkpt lat="49.41292" lon="1.04311">
        <ele>21.5</ele>
        <time>2021-10-22T04:44:10Z</time>
      </trkpt>
      <trkpt lat="49.41287" lon="1.04305">
        <ele>21.6</ele>
        <time>2021-10-22T04:44:11Z</time>
      </trkpt>
      <trkpt lat="49.41277" lon="1.04295">
        <ele>21.9</ele>
        <time>2021-10-22T04:44:13Z</time>
      </trkpt>
      <trkpt lat="49.41272" lon="1.04291">
        <ele>22</ele>
        <time>2021-10-22T04:44:14Z</time>
      </trkpt>
      <trkpt lat="49.41263" lon="1.0428">
        <ele>22.2</ele>
        <time>2021-10-22T04:44:16Z</time>
      </trkpt>
      <trkpt lat="49.41254" lon="1.04271">
        <ele>22.4</ele>
        <time>2021-10-22T04:44:18Z</time>
      </trkpt>
      <trkpt lat="49.41247" lon="1.04263">
        <ele>22.6</ele>
        <time>2021-10-22T04:44:20Z</time>
      </trkpt>
      <trkpt lat="49.41243" lon="1.04259">
        <ele>22.6</ele>
        <time>2021-10-22T04:44:21Z</time>
      </trkpt>
      <trkpt lat="49.41238" lon="1.04254">
        <ele>22.7</ele>
        <time>2021-10-22T04:44:22Z</time>
      </trkpt>
      <trkpt lat="49.41229" lon="1.04244">
        <ele>22.9</ele>
        <time>2021-10-22T04:44:24Z</time>
      </trkpt>
      <trkpt lat="49.41221" lon="1.04236">
        <ele>23</ele>
        <time>2021-10-22T04:44:26Z</time>
      </trkpt>
      <trkpt lat="49.41214" lon="1.04228">
        <ele>23.2</ele>
        <time>2021-10-22T04:44:28Z</time>
      </trkpt>
      <trkpt lat="49.4121" lon="1.04224">
        <ele>23.2</ele>
        <time>2021-10-22T04:44:29Z</time>
      </trkpt>
      <trkpt lat="49.41206" lon="1.0422">
        <ele>23.3</ele>
        <time>2021-10-22T04:44:30Z</time>
      </trkpt>
      <trkpt lat="49.41196" lon="1.0421">
        <ele>23.4</ele>
        <time>2021-10-22T04:44:32Z</time>
      </trkpt>
      <trkpt lat="49.41187" lon="1.042">
        <ele>23.5</ele>
        <time>2021-10-22T04:44:34Z</time>
      </trkpt>
      <trkpt lat="49.41177" lon="1.04189">
        <ele>23.7</ele>
        <time>2021-10-22T04:44:36Z</time>
      </trkpt>
      <trkpt lat="49.41168" lon="1.04178">
        <ele>23.8</ele>
        <time>2021-10-22T04:44:38Z</time>
      </trkpt>
      <trkpt lat="49.41164" lon="1.04173">
        <ele>23.9</ele>
        <time>2021-10-22T04:44:39Z</time>
      </trkpt>
      <trkpt lat="49.41156" lon="1.04163">
        <ele>24</ele>
        <time>2021-10-22T04:44:41Z</time>
      </trkpt>
      <trkpt lat="49.4115" lon="1.04156">
        <ele>24.1</ele>
        <time>2021-10-22T04:44:43Z</time>
      </trkpt>
      <trkpt lat="49.41142" lon="1.04152">
        <ele>24.1</ele>
        <time>2021-10-22T04:44:45Z</time>
      </trkpt>
      <trkpt lat="49.41133" lon="1.04142">
        <ele>23.9</ele>
        <time>2021-10-22T04:44:47Z</time>
      </trkpt>
      <trkpt lat="49.41126" lon="1.04129">
        <ele>23.8</ele>
        <time>2021-10-22T04:44:49Z</time>
      </trkpt>
      <trkpt lat="49.41118" lon="1.04119">
        <ele>23.6</ele>
        <time>2021-10-22T04:44:51Z</time>
      </trkpt>
      <trkpt lat="49.41113" lon="1.04115">
        <ele>23.5</ele>
        <time>2021-10-22T04:44:52Z</time>
      </trkpt>
      <trkpt lat="49.41103" lon="1.04105">
        <ele>23.4</ele>
        <time>2021-10-22T04:44:54Z</time>
      </trkpt>
      <trkpt lat="49.41092" lon="1.04095">
        <ele>23.2</ele>
        <time>2021-10-22T04:44:56Z</time>
      </trkpt>
      <trkpt lat="49.41081" lon="1.04084">
        <ele>23</ele>
        <time>2021-10-22T04:44:58Z</time>
      </trkpt>
      <trkpt lat="49.41076" lon="1.04078">
        <ele>23</ele>
        <time>2021-10-22T04:44:59Z</time>
      </trkpt>
      <trkpt lat="49.41064" lon="1.04067">
        <ele>22.8</ele>
        <time>2021-10-22T04:45:01Z</time>
      </trkpt>
      <trkpt lat="49.41058" lon="1.04061">
        <ele>22.6</ele>
        <time>2021-10-22T04:45:02Z</time>
      </trkpt>
      <trkpt lat="49.41052" lon="1.04056">
        <ele>22.5</ele>
        <time>2021-10-22T04:45:03Z</time>
      </trkpt>
      <trkpt lat="49.4104" lon="1.04044">
        <ele>22.3</ele>
        <time>2021-10-22T04:45:05Z</time>
      </trkpt>
      <trkpt lat="49.41028" lon="1.04033">
        <ele>22</ele>
        <time>2021-10-22T04:45:07Z</time>
      </trkpt>
      <trkpt lat="49.41023" lon="1.04027">
        <ele>21.9</ele>
        <time>2021-10-22T04:45:08Z</time>
      </trkpt>
      <trkpt lat="49.41017" lon="1.04021">
        <ele>21.7</ele>
        <time>2021-10-22T04:45:09Z</time>
      </trkpt>
      <trkpt lat="49.41006" lon="1.04009">
        <ele>21.2</ele>
        <time>2021-10-22T04:45:11Z</time>
      </trkpt>
      <trkpt lat="49.40995" lon="1.03996">
        <ele>20.6</ele>
        <time>2021-10-22T04:45:13Z</time>
      </trkpt>
      <trkpt lat="49.40983" lon="1.03983">
        <ele>19.9</ele>
        <time>2021-10-22T04:45:15Z</time>
      </trkpt>
      <trkpt lat="49.40976" lon="1.03976">
        <ele>19.5</ele>
        <time>2021-10-22T04:45:16Z</time>
      </trkpt>
      <trkpt lat="49.40964" lon="1.03962">
        <ele>18.8</ele>
        <time>2021-10-22T04:45:18Z</time>
      </trkpt>
      <trkpt lat="49.40957" lon="1.03955">
        <ele>18.4</ele>
        <time>2021-10-22T04:45:19Z</time>
      </trkpt>
      <trkpt lat="49.40942" lon="1.03943">
        <ele>17.6</ele>
        <time>2021-10-22T04:45:21Z</time>
      </trkpt>
      <trkpt lat="49.40935" lon="1.03937">
        <ele>17.3</ele>
        <time>2021-10-22T04:45:22Z</time>
      </trkpt>
      <trkpt lat="49.4092" lon="1.03925">
        <ele>16.6</ele>
        <time>2021-10-22T04:45:24Z</time>
      </trkpt>
      <trkpt lat="49.40905" lon="1.03915">
        <ele>16.2</ele>
        <time>2021-10-22T04:45:26Z</time>
      </trkpt>
      <trkpt lat="49.40897" lon="1.0391">
        <ele>16</ele>
        <time>2021-10-22T04:45:27Z</time>
      </trkpt>
      <trkpt lat="49.4089" lon="1.03905">
        <ele>15.8</ele>
        <time>2021-10-22T04:45:28Z</time>
      </trkpt>
      <trkpt lat="49.40877" lon="1.03896">
        <ele>15.7</ele>
        <time>2021-10-22T04:45:30Z</time>
      </trkpt>
      <trkpt lat="49.40864" lon="1.0389">
        <ele>15.8</ele>
        <time>2021-10-22T04:45:32Z</time>
      </trkpt>
      <trkpt lat="49.40859" lon="1.03886">
        <ele>15.9</ele>
        <time>2021-10-22T04:45:33Z</time>
      </trkpt>
      <trkpt lat="49.40848" lon="1.03882">
        <ele>16.1</ele>
        <time>2021-10-22T04:45:35Z</time>
      </trkpt>
      <trkpt lat="49.4084" lon="1.03876">
        <ele>16.3</ele>
        <time>2021-10-22T04:45:37Z</time>
      </trkpt>
      <trkpt lat="49.40838" lon="1.03871">
        <ele>16.3</ele>
        <time>2021-10-22T04:45:38Z</time>
      </trkpt>
      <trkpt lat="49.4084" lon="1.03854">
        <ele>16</ele>
        <time>2021-10-22T04:45:40Z</time>
      </trkpt>
      <trkpt lat="49.4084" lon="1.03846">
        <ele>15.8</ele>
        <time>2021-10-22T04:45:41Z</time>
      </trkpt>
      <trkpt lat="49.40839" lon="1.03827">
        <ele>15.4</ele>
        <time>2021-10-22T04:45:43Z</time>
      </trkpt>
      <trkpt lat="49.40841" lon="1.03818">
        <ele>15.2</ele>
        <time>2021-10-22T04:45:44Z</time>
      </trkpt>
      <trkpt lat="49.40851" lon="1.03801">
        <ele>14.7</ele>
        <time>2021-10-22T04:45:46Z</time>
      </trkpt>
      <trkpt lat="49.40861" lon="1.03784">
        <ele>14.2</ele>
        <time>2021-10-22T04:45:48Z</time>
      </trkpt>
      <trkpt lat="49.40866" lon="1.03774">
        <ele>14</ele>
        <time>2021-10-22T04:45:49Z</time>
      </trkpt>
      <trkpt lat="49.40869" lon="1.03764">
        <ele>13.7</ele>
        <time>2021-10-22T04:45:50Z</time>
      </trkpt>
      <trkpt lat="49.40875" lon="1.03743">
        <ele>13.4</ele>
        <time>2021-10-22T04:45:52Z</time>
      </trkpt>
      <trkpt lat="49.4088" lon="1.03723">
        <ele>13.1</ele>
        <time>2021-10-22T04:45:54Z</time>
      </trkpt>
      <trkpt lat="49.40886" lon="1.03704">
        <ele>12.9</ele>
        <time>2021-10-22T04:45:56Z</time>
      </trkpt>
      <trkpt lat="49.40889" lon="1.03694">
        <ele>12.7</ele>
        <time>2021-10-22T04:45:57Z</time>
      </trkpt>
      <trkpt lat="49.40892" lon="1.03684">
        <ele>12.6</ele>
        <time>2021-10-22T04:45:58Z</time>
      </trkpt>
      <trkpt lat="49.409" lon="1.03668">
        <ele>12.4</ele>
        <time>2021-10-22T04:46:00Z</time>
      </trkpt>
      <trkpt lat="49.40913" lon="1.0366">
        <ele>12.1</ele>
        <time>2021-10-22T04:46:02Z</time>
      </trkpt>
      <trkpt lat="49.40918" lon="1.03654">
        <ele>12</ele>
        <time>2021-10-22T04:46:03Z</time>
      </trkpt>
      <trkpt lat="49.40925" lon="1.03637">
        <ele>11.7</ele>
        <time>2021-10-22T04:46:05Z</time>
      </trkpt>
      <trkpt lat="49.40927" lon="1.03627">
        <ele>11.6</ele>
        <time>2021-10-22T04:46:06Z</time>
      </trkpt>
      <trkpt lat="49.40925" lon="1.03608">
        <ele>11.3</ele>
        <time>2021-10-22T04:46:08Z</time>
      </trkpt>
      <trkpt lat="49.40921" lon="1.0359">
        <ele>11.1</ele>
        <time>2021-10-22T04:46:10Z</time>
      </trkpt>
      <trkpt lat="49.40914" lon="1.03581">
        <ele>11</ele>
        <time>2021-10-22T04:46:12Z</time>
      </trkpt>
      <trkpt lat="49.40908" lon="1.03579">
        <ele>10.9</ele>
        <time>2021-10-22T04:46:13Z</time>
      </trkpt>
      <trkpt lat="49.40903" lon="1.03577">
        <ele>11</ele>
        <time>2021-10-22T04:46:14Z</time>
      </trkpt>
      <trkpt lat="49.40897" lon="1.03576">
        <ele>11.3</ele>
        <time>2021-10-22T04:46:15Z</time>
      </trkpt>
      <trkpt lat="49.40887" lon="1.03574">
        <ele>11.9</ele>
        <time>2021-10-22T04:46:17Z</time>
      </trkpt>
      <trkpt lat="49.40882" lon="1.03573">
        <ele>12.2</ele>
        <time>2021-10-22T04:46:18Z</time>
      </trkpt>
      <trkpt lat="49.40873" lon="1.03567">
        <ele>12.5</ele>
        <time>2021-10-22T04:46:20Z</time>
      </trkpt>
      <trkpt lat="49.40868" lon="1.03564">
        <ele>12.7</ele>
        <time>2021-10-22T04:46:21Z</time>
      </trkpt>
      <trkpt lat="49.40863" lon="1.0356">
        <ele>12.7</ele>
        <time>2021-10-22T04:46:22Z</time>
      </trkpt>
      <trkpt lat="49.40854" lon="1.03551">
        <ele>12.9</ele>
        <time>2021-10-22T04:46:24Z</time>
      </trkpt>
      <trkpt lat="49.40849" lon="1.03547">
        <ele>13.1</ele>
        <time>2021-10-22T04:46:25Z</time>
      </trkpt>
      <trkpt lat="49.4084" lon="1.03538">
        <ele>13.4</ele>
        <time>2021-10-22T04:46:27Z</time>
      </trkpt>
      <trkpt lat="49.40835" lon="1.03533">
        <ele>13.5</ele>
        <time>2021-10-22T04:46:28Z</time>
      </trkpt>
      <trkpt lat="49.40831" lon="1.03529">
        <ele>13.7</ele>
        <time>2021-10-22T04:46:29Z</time>
      </trkpt>
      <trkpt lat="49.40826" lon="1.03524">
        <ele>13.9</ele>
        <time>2021-10-22T04:46:30Z</time>
      </trkpt>
      <trkpt lat="49.40818" lon="1.03514">
        <ele>14.3</ele>
        <time>2021-10-22T04:46:32Z</time>
      </trkpt>
      <trkpt lat="49.40809" lon="1.03506">
        <ele>14.6</ele>
        <time>2021-10-22T04:46:34Z</time>
      </trkpt>
      <trkpt lat="49.40804" lon="1.03501">
        <ele>14.8</ele>
        <time>2021-10-22T04:46:35Z</time>
      </trkpt>
      <trkpt lat="49.408" lon="1.03497">
        <ele>15</ele>
        <time>2021-10-22T04:46:36Z</time>
      </trkpt>
      <trkpt lat="49.40794" lon="1.03493">
        <ele>15.2</ele>
        <time>2021-10-22T04:46:37Z</time>
      </trkpt>
      <trkpt lat="49.40785" lon="1.03488">
        <ele>15.6</ele>
        <time>2021-10-22T04:46:39Z</time>
      </trkpt>
      <trkpt lat="49.40776" lon="1.03488">
        <ele>15.9</ele>
        <time>2021-10-22T04:46:41Z</time>
      </trkpt>
      <trkpt lat="49.40769" lon="1.0349">
        <ele>16.1</ele>
        <time>2021-10-22T04:46:43Z</time>
      </trkpt>
      <trkpt lat="49.40759" lon="1.03493">
        <ele>16.4</ele>
        <time>2021-10-22T04:46:45Z</time>
      </trkpt>
      <trkpt lat="49.40754" lon="1.03495">
        <ele>16.6</ele>
        <time>2021-10-22T04:46:46Z</time>
      </trkpt>
      <trkpt lat="49.40743" lon="1.035">
        <ele>16.9</ele>
        <time>2021-10-22T04:46:48Z</time>
      </trkpt>
      <trkpt lat="49.40738" lon="1.03502">
        <ele>17.1</ele>
        <time>2021-10-22T04:46:49Z</time>
      </trkpt>
      <trkpt lat="49.40727" lon="1.03508">
        <ele>17.5</ele>
        <time>2021-10-22T04:46:51Z</time>
      </trkpt>
      <trkpt lat="49.40722" lon="1.0351">
        <ele>17.7</ele>
        <time>2021-10-22T04:46:52Z</time>
      </trkpt>
      <trkpt lat="49.40712" lon="1.03514">
        <ele>18.1</ele>
        <time>2021-10-22T04:46:54Z</time>
      </trkpt>
      <trkpt lat="49.40701" lon="1.03517">
        <ele>18.5</ele>
        <time>2021-10-22T04:46:56Z</time>
      </trkpt>
      <trkpt lat="49.40691" lon="1.03524">
        <ele>18.9</ele>
        <time>2021-10-22T04:46:58Z</time>
      </trkpt>
      <trkpt lat="49.4068" lon="1.03532">
        <ele>19.2</ele>
        <time>2021-10-22T04:47:00Z</time>
      </trkpt>
      <trkpt lat="49.40669" lon="1.03539">
        <ele>19.6</ele>
        <time>2021-10-22T04:47:02Z</time>
      </trkpt>
      <trkpt lat="49.40655" lon="1.03552">
        <ele>20.1</ele>
        <time>2021-10-22T04:47:04Z</time>
      </trkpt>
      <trkpt lat="49.40649" lon="1.03557">
        <ele>20.3</ele>
        <time>2021-10-22T04:47:05Z</time>
      </trkpt>
      <trkpt lat="49.40639" lon="1.03561">
        <ele>20.6</ele>
        <time>2021-10-22T04:47:07Z</time>
      </trkpt>
      <trkpt lat="49.40629" lon="1.03563">
        <ele>20.9</ele>
        <time>2021-10-22T04:47:09Z</time>
      </trkpt>
      <trkpt lat="49.40619" lon="1.03563">
        <ele>21.1</ele>
        <time>2021-10-22T04:47:11Z</time>
      </trkpt>
      <trkpt lat="49.40614" lon="1.03561">
        <ele>21.2</ele>
        <time>2021-10-22T04:47:12Z</time>
      </trkpt>
      <trkpt lat="49.40603" lon="1.03555">
        <ele>21.3</ele>
        <time>2021-10-22T04:47:14Z</time>
      </trkpt>
      <trkpt lat="49.40598" lon="1.03551">
        <ele>21.3</ele>
        <time>2021-10-22T04:47:15Z</time>
      </trkpt>
      <trkpt lat="49.40588" lon="1.03539">
        <ele>21.4</ele>
        <time>2021-10-22T04:47:17Z</time>
      </trkpt>
      <trkpt lat="49.40579" lon="1.03529">
        <ele>21.4</ele>
        <time>2021-10-22T04:47:19Z</time>
      </trkpt>
      <trkpt lat="49.40574" lon="1.03524">
        <ele>21.4</ele>
        <time>2021-10-22T04:47:20Z</time>
      </trkpt>
      <trkpt lat="49.40569" lon="1.03518">
        <ele>21.4</ele>
        <time>2021-10-22T04:47:21Z</time>
      </trkpt>
      <trkpt lat="49.4056" lon="1.03509">
        <ele>21.4</ele>
        <time>2021-10-22T04:47:23Z</time>
      </trkpt>
      <trkpt lat="49.40556" lon="1.03504">
        <ele>21.4</ele>
        <time>2021-10-22T04:47:24Z</time>
      </trkpt>
      <trkpt lat="49.40551" lon="1.03498">
        <ele>21.4</ele>
        <time>2021-10-22T04:47:25Z</time>
      </trkpt>
      <trkpt lat="49.40541" lon="1.03488">
        <ele>21.5</ele>
        <time>2021-10-22T04:47:27Z</time>
      </trkpt>
      <trkpt lat="49.40536" lon="1.03482">
        <ele>21.5</ele>
        <time>2021-10-22T04:47:28Z</time>
      </trkpt>
      <trkpt lat="49.40531" lon="1.03477">
        <ele>21.5</ele>
        <time>2021-10-22T04:47:29Z</time>
      </trkpt>
      <trkpt lat="49.40522" lon="1.03467">
        <ele>21.5</ele>
        <time>2021-10-22T04:47:31Z</time>
      </trkpt>
      <trkpt lat="49.40517" lon="1.03462">
        <ele>21.6</ele>
        <time>2021-10-22T04:47:32Z</time>
      </trkpt>
      <trkpt lat="49.40512" lon="1.03456">
        <ele>21.6</ele>
        <time>2021-10-22T04:47:33Z</time>
      </trkpt>
      <trkpt lat="49.40503" lon="1.03447">
        <ele>21.6</ele>
        <time>2021-10-22T04:47:35Z</time>
      </trkpt>
      <trkpt lat="49.40497" lon="1.03442">
        <ele>21.7</ele>
        <time>2021-10-22T04:47:36Z</time>
      </trkpt>
      <trkpt lat="49.40487" lon="1.03433">
        <ele>21.6</ele>
        <time>2021-10-22T04:47:38Z</time>
      </trkpt>
      <trkpt lat="49.40477" lon="1.03424">
        <ele>21.6</ele>
        <time>2021-10-22T04:47:40Z</time>
      </trkpt>
      <trkpt lat="49.40467" lon="1.03414">
        <ele>21.6</ele>
        <time>2021-10-22T04:47:42Z</time>
      </trkpt>
      <trkpt lat="49.40462" lon="1.03409">
        <ele>21.6</ele>
        <time>2021-10-22T04:47:43Z</time>
      </trkpt>
      <trkpt lat="49.40457" lon="1.03404">
        <ele>21.6</ele>
        <time>2021-10-22T04:47:44Z</time>
      </trkpt>
      <trkpt lat="49.40451" lon="1.03399">
        <ele>21.6</ele>
        <time>2021-10-22T04:47:45Z</time>
      </trkpt>
      <trkpt lat="49.40441" lon="1.03389">
        <ele>21.5</ele>
        <time>2021-10-22T04:47:47Z</time>
      </trkpt>
      <trkpt lat="49.40435" lon="1.03384">
        <ele>21.4</ele>
        <time>2021-10-22T04:47:48Z</time>
      </trkpt>
      <trkpt lat="49.4043" lon="1.03379">
        <ele>21.3</ele>
        <time>2021-10-22T04:47:49Z</time>
      </trkpt>
      <trkpt lat="49.40419" lon="1.03368">
        <ele>21.2</ele>
        <time>2021-10-22T04:47:51Z</time>
      </trkpt>
      <trkpt lat="49.40409" lon="1.03357">
        <ele>21.1</ele>
        <time>2021-10-22T04:47:53Z</time>
      </trkpt>
      <trkpt lat="49.40398" lon="1.03345">
        <ele>20.9</ele>
        <time>2021-10-22T04:47:55Z</time>
      </trkpt>
      <trkpt lat="49.40393" lon="1.03339">
        <ele>20.9</ele>
        <time>2021-10-22T04:47:56Z</time>
      </trkpt>
      <trkpt lat="49.40382" lon="1.03327">
        <ele>20.8</ele>
        <time>2021-10-22T04:47:58Z</time>
      </trkpt>
      <trkpt lat="49.40371" lon="1.03314">
        <ele>20.6</ele>
        <time>2021-10-22T04:48:00Z</time>
      </trkpt>
      <trkpt lat="49.40361" lon="1.033">
        <ele>20.5</ele>
        <time>2021-10-22T04:48:02Z</time>
      </trkpt>
      <trkpt lat="49.4035" lon="1.03286">
        <ele>20.4</ele>
        <time>2021-10-22T04:48:04Z</time>
      </trkpt>
      <trkpt lat="49.40339" lon="1.03273">
        <ele>20.4</ele>
        <time>2021-10-22T04:48:06Z</time>
      </trkpt>
      <trkpt lat="49.40328" lon="1.0326">
        <ele>20.2</ele>
        <time>2021-10-22T04:48:08Z</time>
      </trkpt>
      <trkpt lat="49.40323" lon="1.03254">
        <ele>20.2</ele>
        <time>2021-10-22T04:48:09Z</time>
      </trkpt>
      <trkpt lat="49.40311" lon="1.03242">
        <ele>20</ele>
        <time>2021-10-22T04:48:11Z</time>
      </trkpt>
      <trkpt lat="49.40306" lon="1.03236">
        <ele>20</ele>
        <time>2021-10-22T04:48:12Z</time>
      </trkpt>
      <trkpt lat="49.40294" lon="1.03224">
        <ele>19.8</ele>
        <time>2021-10-22T04:48:14Z</time>
      </trkpt>
      <trkpt lat="49.40283" lon="1.03213">
        <ele>19.7</ele>
        <time>2021-10-22T04:48:16Z</time>
      </trkpt>
      <trkpt lat="49.40271" lon="1.03202">
        <ele>19.6</ele>
        <time>2021-10-22T04:48:18Z</time>
      </trkpt>
      <trkpt lat="49.40259" lon="1.03191">
        <ele>19.4</ele>
        <time>2021-10-22T04:48:20Z</time>
      </trkpt>
      <trkpt lat="49.40248" lon="1.0318">
        <ele>19.3</ele>
        <time>2021-10-22T04:48:22Z</time>
      </trkpt>
      <trkpt lat="49.40242" lon="1.03174">
        <ele>19.2</ele>
        <time>2021-10-22T04:48:23Z</time>
      </trkpt>
      <trkpt lat="49.40231" lon="1.03162">
        <ele>19</ele>
        <time>2021-10-22T04:48:25Z</time>
      </trkpt>
      <trkpt lat="49.4022" lon="1.0315">
        <ele>18.7</ele>
        <time>2021-10-22T04:48:27Z</time>
      </trkpt>
      <trkpt lat="49.40214" lon="1.03144">
        <ele>18.6</ele>
        <time>2021-10-22T04:48:28Z</time>
      </trkpt>
      <trkpt lat="49.40203" lon="1.03132">
        <ele>18.3</ele>
        <time>2021-10-22T04:48:30Z</time>
      </trkpt>
      <trkpt lat="49.40198" lon="1.03126">
        <ele>18.2</ele>
        <time>2021-10-22T04:48:31Z</time>
      </trkpt>
      <trkpt lat="49.40192" lon="1.03119">
        <ele>18.1</ele>
        <time>2021-10-22T04:48:32Z</time>
      </trkpt>
      <trkpt lat="49.40181" lon="1.03106">
        <ele>17.8</ele>
        <time>2021-10-22T04:48:34Z</time>
      </trkpt>
      <trkpt lat="49.40169" lon="1.03093">
        <ele>17.5</ele>
        <time>2021-10-22T04:48:36Z</time>
      </trkpt>
      <trkpt lat="49.40163" lon="1.03087">
        <ele>17.4</ele>
        <time>2021-10-22T04:48:37Z</time>
      </trkpt>
      <trkpt lat="49.40152" lon="1.03074">
        <ele>17.1</ele>
        <time>2021-10-22T04:48:39Z</time>
      </trkpt>
      <trkpt lat="49.40146" lon="1.03068">
        <ele>17</ele>
        <time>2021-10-22T04:48:40Z</time>
      </trkpt>
      <trkpt lat="49.40134" lon="1.03055">
        <ele>16.8</ele>
        <time>2021-10-22T04:48:42Z</time>
      </trkpt>
      <trkpt lat="49.40128" lon="1.03048">
        <ele>16.7</ele>
        <time>2021-10-22T04:48:43Z</time>
      </trkpt>
      <trkpt lat="49.40122" lon="1.03042">
        <ele>16.6</ele>
        <time>2021-10-22T04:48:44Z</time>
      </trkpt>
      <trkpt lat="49.4011" lon="1.0303">
        <ele>16.5</ele>
        <time>2021-10-22T04:48:46Z</time>
      </trkpt>
      <trkpt lat="49.40099" lon="1.03018">
        <ele>16.4</ele>
        <time>2021-10-22T04:48:48Z</time>
      </trkpt>
      <trkpt lat="49.40093" lon="1.03011">
        <ele>16.3</ele>
        <time>2021-10-22T04:48:49Z</time>
      </trkpt>
      <trkpt lat="49.40087" lon="1.03005">
        <ele>16.3</ele>
        <time>2021-10-22T04:48:50Z</time>
      </trkpt>
      <trkpt lat="49.40082" lon="1.02999">
        <ele>16.3</ele>
        <time>2021-10-22T04:48:51Z</time>
      </trkpt>
      <trkpt lat="49.40076" lon="1.02993">
        <ele>16.2</ele>
        <time>2021-10-22T04:48:52Z</time>
      </trkpt>
      <trkpt lat="49.40065" lon="1.02982">
        <ele>16.2</ele>
        <time>2021-10-22T04:48:54Z</time>
      </trkpt>
      <trkpt lat="49.40054" lon="1.02969">
        <ele>16.1</ele>
        <time>2021-10-22T04:48:56Z</time>
      </trkpt>
      <trkpt lat="49.40049" lon="1.02963">
        <ele>16.1</ele>
        <time>2021-10-22T04:48:57Z</time>
      </trkpt>
      <trkpt lat="49.40037" lon="1.0295">
        <ele>16</ele>
        <time>2021-10-22T04:48:59Z</time>
      </trkpt>
      <trkpt lat="49.40026" lon="1.02938">
        <ele>15.9</ele>
        <time>2021-10-22T04:49:01Z</time>
      </trkpt>
      <trkpt lat="49.40014" lon="1.02925">
        <ele>15.8</ele>
        <time>2021-10-22T04:49:03Z</time>
      </trkpt>
      <trkpt lat="49.40009" lon="1.02919">
        <ele>15.7</ele>
        <time>2021-10-22T04:49:04Z</time>
      </trkpt>
      <trkpt lat="49.39997" lon="1.02907">
        <ele>15.6</ele>
        <time>2021-10-22T04:49:06Z</time>
      </trkpt>
      <trkpt lat="49.39991" lon="1.02901">
        <ele>15.6</ele>
        <time>2021-10-22T04:49:07Z</time>
      </trkpt>
      <trkpt lat="49.3998" lon="1.02889">
        <ele>15.4</ele>
        <time>2021-10-22T04:49:09Z</time>
      </trkpt>
      <trkpt lat="49.39974" lon="1.02883">
        <ele>15.4</ele>
        <time>2021-10-22T04:49:10Z</time>
      </trkpt>
      <trkpt lat="49.39968" lon="1.02876">
        <ele>15.3</ele>
        <time>2021-10-22T04:49:11Z</time>
      </trkpt>
      <trkpt lat="49.39962" lon="1.0287">
        <ele>15.2</ele>
        <time>2021-10-22T04:49:12Z</time>
      </trkpt>
      <trkpt lat="49.39952" lon="1.02856">
        <ele>15.1</ele>
        <time>2021-10-22T04:49:14Z</time>
      </trkpt>
      <trkpt lat="49.39947" lon="1.02848">
        <ele>15</ele>
        <time>2021-10-22T04:49:15Z</time>
      </trkpt>
      <trkpt lat="49.39938" lon="1.02832">
        <ele>15</ele>
        <time>2021-10-22T04:49:17Z</time>
      </trkpt>
      <trkpt lat="49.39934" lon="1.02823">
        <ele>15</ele>
        <time>2021-10-22T04:49:18Z</time>
      </trkpt>
      <trkpt lat="49.39926" lon="1.02806">
        <ele>14.9</ele>
        <time>2021-10-22T04:49:20Z</time>
      </trkpt>
      <trkpt lat="49.39919" lon="1.02788">
        <ele>14.9</ele>
        <time>2021-10-22T04:49:22Z</time>
      </trkpt>
      <trkpt lat="49.39916" lon="1.02779">
        <ele>14.9</ele>
        <time>2021-10-22T04:49:23Z</time>
      </trkpt>
      <trkpt lat="49.39909" lon="1.02763">
        <ele>15</ele>
        <time>2021-10-22T04:49:25Z</time>
      </trkpt>
      <trkpt lat="49.39904" lon="1.02755">
        <ele>15</ele>
        <time>2021-10-22T04:49:26Z</time>
      </trkpt>
      <trkpt lat="49.39898" lon="1.02749">
        <ele>15.1</ele>
        <time>2021-10-22T04:49:27Z</time>
      </trkpt>
      <trkpt lat="49.39888" lon="1.02739">
        <ele>15.2</ele>
        <time>2021-10-22T04:49:29Z</time>
      </trkpt>
      <trkpt lat="49.39876" lon="1.02732">
        <ele>15.2</ele>
        <time>2021-10-22T04:49:31Z</time>
      </trkpt>
      <trkpt lat="49.39865" lon="1.02725">
        <ele>15.3</ele>
        <time>2021-10-22T04:49:33Z</time>
      </trkpt>
      <trkpt lat="49.3986" lon="1.02719">
        <ele>15.2</ele>
        <time>2021-10-22T04:49:34Z</time>
      </trkpt>
      <trkpt lat="49.39855" lon="1.02713">
        <ele>15.1</ele>
        <time>2021-10-22T04:49:35Z</time>
      </trkpt>
      <trkpt lat="49.39845" lon="1.02701">
        <ele>14.7</ele>
        <time>2021-10-22T04:49:37Z</time>
      </trkpt>
      <trkpt lat="49.39839" lon="1.02698">
        <ele>14.6</ele>
        <time>2021-10-22T04:49:38Z</time>
      </trkpt>
      <trkpt lat="49.39825" lon="1.02695">
        <ele>14.4</ele>
        <time>2021-10-22T04:49:40Z</time>
      </trkpt>
      <trkpt lat="49.39811" lon="1.02691">
        <ele>14.2</ele>
        <time>2021-10-22T04:49:42Z</time>
      </trkpt>
      <trkpt lat="49.39805" lon="1.02687">
        <ele>14.1</ele>
        <time>2021-10-22T04:49:43Z</time>
      </trkpt>
      <trkpt lat="49.39792" lon="1.02675">
        <ele>13.8</ele>
        <time>2021-10-22T04:49:45Z</time>
      </trkpt>
      <trkpt lat="49.39786" lon="1.02669">
        <ele>13.6</ele>
        <time>2021-10-22T04:49:46Z</time>
      </trkpt>
      <trkpt lat="49.3978" lon="1.02663">
        <ele>13.5</ele>
        <time>2021-10-22T04:49:47Z</time>
      </trkpt>
      <trkpt lat="49.39774" lon="1.02657">
        <ele>13.4</ele>
        <time>2021-10-22T04:49:48Z</time>
      </trkpt>
      <trkpt lat="49.39762" lon="1.02645">
        <ele>13.1</ele>
        <time>2021-10-22T04:49:50Z</time>
      </trkpt>
      <trkpt lat="49.39755" lon="1.02638">
        <ele>13</ele>
        <time>2021-10-22T04:49:51Z</time>
      </trkpt>
      <trkpt lat="49.39744" lon="1.02625">
        <ele>12.9</ele>
        <time>2021-10-22T04:49:53Z</time>
      </trkpt>
      <trkpt lat="49.39738" lon="1.02619">
        <ele>12.8</ele>
        <time>2021-10-22T04:49:54Z</time>
      </trkpt>
      <trkpt lat="49.39732" lon="1.02612">
        <ele>12.8</ele>
        <time>2021-10-22T04:49:55Z</time>
      </trkpt>
      <trkpt lat="49.3972" lon="1.026">
        <ele>12.7</ele>
        <time>2021-10-22T04:49:57Z</time>
      </trkpt>
      <trkpt lat="49.39708" lon="1.02588">
        <ele>12.5</ele>
        <time>2021-10-22T04:49:59Z</time>
      </trkpt>
      <trkpt lat="49.39703" lon="1.02581">
        <ele>12.5</ele>
        <time>2021-10-22T04:50:00Z</time>
      </trkpt>
      <trkpt lat="49.39691" lon="1.02569">
        <ele>12.4</ele>
        <time>2021-10-22T04:50:02Z</time>
      </trkpt>
      <trkpt lat="49.39681" lon="1.02556">
        <ele>12.3</ele>
        <time>2021-10-22T04:50:04Z</time>
      </trkpt>
      <trkpt lat="49.39675" lon="1.0255">
        <ele>12.3</ele>
        <time>2021-10-22T04:50:05Z</time>
      </trkpt>
      <trkpt lat="49.39663" lon="1.02539">
        <ele>12.2</ele>
        <time>2021-10-22T04:50:07Z</time>
      </trkpt>
      <trkpt lat="49.39651" lon="1.02528">
        <ele>12.1</ele>
        <time>2021-10-22T04:50:09Z</time>
      </trkpt>
      <trkpt lat="49.39639" lon="1.02517">
        <ele>12</ele>
        <time>2021-10-22T04:50:11Z</time>
      </trkpt>
      <trkpt lat="49.39627" lon="1.02507">
        <ele>11.9</ele>
        <time>2021-10-22T04:50:13Z</time>
      </trkpt>
      <trkpt lat="49.39616" lon="1.02498">
        <ele>11.8</ele>
        <time>2021-10-22T04:50:15Z</time>
      </trkpt>
      <trkpt lat="49.3961" lon="1.02493">
        <ele>11.8</ele>
        <time>2021-10-22T04:50:16Z</time>
      </trkpt>
      <trkpt lat="49.39604" lon="1.02488">
        <ele>11.7</ele>
        <time>2021-10-22T04:50:17Z</time>
      </trkpt>
      <trkpt lat="49.39592" lon="1.02478">
        <ele>11.6</ele>
        <time>2021-10-22T04:50:19Z</time>
      </trkpt>
      <trkpt lat="49.39586" lon="1.02473">
        <ele>11.6</ele>
        <time>2021-10-22T04:50:20Z</time>
      </trkpt>
      <trkpt lat="49.39574" lon="1.02463">
        <ele>11.5</ele>
        <time>2021-10-22T04:50:22Z</time>
      </trkpt>
      <trkpt lat="49.39568" lon="1.02458">
        <ele>11.5</ele>
        <time>2021-10-22T04:50:23Z</time>
      </trkpt>
      <trkpt lat="49.39561" lon="1.02454">
        <ele>11.5</ele>
        <time>2021-10-22T04:50:24Z</time>
      </trkpt>
      <trkpt lat="49.39549" lon="1.02445">
        <ele>11.4</ele>
        <time>2021-10-22T04:50:26Z</time>
      </trkpt>
      <trkpt lat="49.39543" lon="1.02441">
        <ele>11.3</ele>
        <time>2021-10-22T04:50:27Z</time>
      </trkpt>
      <trkpt lat="49.39531" lon="1.02433">
        <ele>11.3</ele>
        <time>2021-10-22T04:50:29Z</time>
      </trkpt>
      <trkpt lat="49.39518" lon="1.02425">
        <ele>11.2</ele>
        <time>2021-10-22T04:50:31Z</time>
      </trkpt>
      <trkpt lat="49.39506" lon="1.02416">
        <ele>11.1</ele>
        <time>2021-10-22T04:50:33Z</time>
      </trkpt>
      <trkpt lat="49.39494" lon="1.02409">
        <ele>11.1</ele>
        <time>2021-10-22T04:50:35Z</time>
      </trkpt>
      <trkpt lat="49.39487" lon="1.02406">
        <ele>11.1</ele>
        <time>2021-10-22T04:50:36Z</time>
      </trkpt>
      <trkpt lat="49.39481" lon="1.02403">
        <ele>11.1</ele>
        <time>2021-10-22T04:50:37Z</time>
      </trkpt>
      <trkpt lat="49.39468" lon="1.02397">
        <ele>11.1</ele>
        <time>2021-10-22T04:50:39Z</time>
      </trkpt>
      <trkpt lat="49.39462" lon="1.02393">
        <ele>11.1</ele>
        <time>2021-10-22T04:50:40Z</time>
      </trkpt>
      <trkpt lat="49.3945" lon="1.02386">
        <ele>11.2</ele>
        <time>2021-10-22T04:50:42Z</time>
      </trkpt>
      <trkpt lat="49.39437" lon="1.0238">
        <ele>11.3</ele>
        <time>2021-10-22T04:50:44Z</time>
      </trkpt>
      <trkpt lat="49.39425" lon="1.02371">
        <ele>11.3</ele>
        <time>2021-10-22T04:50:46Z</time>
      </trkpt>
      <trkpt lat="49.3942" lon="1.02368">
        <ele>11.3</ele>
        <time>2021-10-22T04:50:47Z</time>
      </trkpt>
      <trkpt lat="49.39408" lon="1.02364">
        <ele>11.4</ele>
        <time>2021-10-22T04:50:49Z</time>
      </trkpt>
      <trkpt lat="49.39402" lon="1.02362">
        <ele>11.4</ele>
        <time>2021-10-22T04:50:50Z</time>
      </trkpt>
      <trkpt lat="49.39391" lon="1.02359">
        <ele>11.5</ele>
        <time>2021-10-22T04:50:52Z</time>
      </trkpt>
      <trkpt lat="49.3938" lon="1.02355">
        <ele>11.5</ele>
        <time>2021-10-22T04:50:54Z</time>
      </trkpt>
      <trkpt lat="49.39374" lon="1.02352">
        <ele>11.5</ele>
        <time>2021-10-22T04:50:55Z</time>
      </trkpt>
      <trkpt lat="49.39368" lon="1.0235">
        <ele>11.5</ele>
        <time>2021-10-22T04:50:56Z</time>
      </trkpt>
      <trkpt lat="49.39356" lon="1.02346">
        <ele>11.6</ele>
        <time>2021-10-22T04:50:58Z</time>
      </trkpt>
      <trkpt lat="49.39343" lon="1.02341">
        <ele>11.7</ele>
        <time>2021-10-22T04:51:00Z</time>
      </trkpt>
      <trkpt lat="49.39333" lon="1.0233">
        <ele>11.7</ele>
        <time>2021-10-22T04:51:02Z</time>
      </trkpt>
      <trkpt lat="49.39327" lon="1.02326">
        <ele>11.7</ele>
        <time>2021-10-22T04:51:03Z</time>
      </trkpt>
      <trkpt lat="49.39315" lon="1.0232">
        <ele>11.8</ele>
        <time>2021-10-22T04:51:05Z</time>
      </trkpt>
      <trkpt lat="49.39309" lon="1.02318">
        <ele>11.8</ele>
        <time>2021-10-22T04:51:06Z</time>
      </trkpt>
      <trkpt lat="49.39298" lon="1.02311">
        <ele>11.8</ele>
        <time>2021-10-22T04:51:08Z</time>
      </trkpt>
      <trkpt lat="49.39286" lon="1.02305">
        <ele>11.7</ele>
        <time>2021-10-22T04:51:10Z</time>
      </trkpt>
      <trkpt lat="49.39274" lon="1.02301">
        <ele>11.7</ele>
        <time>2021-10-22T04:51:12Z</time>
      </trkpt>
      <trkpt lat="49.39261" lon="1.02296">
        <ele>11.7</ele>
        <time>2021-10-22T04:51:14Z</time>
      </trkpt>
      <trkpt lat="49.3925" lon="1.02289">
        <ele>11.8</ele>
        <time>2021-10-22T04:51:16Z</time>
      </trkpt>
      <trkpt lat="49.39244" lon="1.02285">
        <ele>11.8</ele>
        <time>2021-10-22T04:51:17Z</time>
      </trkpt>
      <trkpt lat="49.39239" lon="1.02279">
        <ele>11.8</ele>
        <time>2021-10-22T04:51:18Z</time>
      </trkpt>
      <trkpt lat="49.39228" lon="1.02269">
        <ele>11.9</ele>
        <time>2021-10-22T04:51:20Z</time>
      </trkpt>
      <trkpt lat="49.39217" lon="1.02259">
        <ele>12</ele>
        <time>2021-10-22T04:51:22Z</time>
      </trkpt>
      <trkpt lat="49.39206" lon="1.02251">
        <ele>12</ele>
        <time>2021-10-22T04:51:24Z</time>
      </trkpt>
      <trkpt lat="49.39195" lon="1.02244">
        <ele>12</ele>
        <time>2021-10-22T04:51:26Z</time>
      </trkpt>
      <trkpt lat="49.39189" lon="1.0224">
        <ele>11.9</ele>
        <time>2021-10-22T04:51:27Z</time>
      </trkpt>
      <trkpt lat="49.39177" lon="1.02233">
        <ele>11.8</ele>
        <time>2021-10-22T04:51:29Z</time>
      </trkpt>
      <trkpt lat="49.39165" lon="1.02226">
        <ele>11.7</ele>
        <time>2021-10-22T04:51:31Z</time>
      </trkpt>
      <trkpt lat="49.39158" lon="1.02222">
        <ele>11.6</ele>
        <time>2021-10-22T04:51:32Z</time>
      </trkpt>
      <trkpt lat="49.39146" lon="1.02215">
        <ele>11.5</ele>
        <time>2021-10-22T04:51:34Z</time>
      </trkpt>
      <trkpt lat="49.39139" lon="1.02212">
        <ele>11.4</ele>
        <time>2021-10-22T04:51:35Z</time>
      </trkpt>
      <trkpt lat="49.39127" lon="1.02205">
        <ele>11.1</ele>
        <time>2021-10-22T04:51:37Z</time>
      </trkpt>
      <trkpt lat="49.39114" lon="1.02197">
        <ele>10.9</ele>
        <time>2021-10-22T04:51:39Z</time>
      </trkpt>
      <trkpt lat="49.39102" lon="1.02188">
        <ele>10.6</ele>
        <time>2021-10-22T04:51:41Z</time>
      </trkpt>
      <trkpt lat="49.39096" lon="1.02184">
        <ele>10.4</ele>
        <time>2021-10-22T04:51:42Z</time>
      </trkpt>
      <trkpt lat="49.39082" lon="1.02177">
        <ele>10.1</ele>
        <time>2021-10-22T04:51:44Z</time>
      </trkpt>
      <trkpt lat="49.39068" lon="1.02171">
        <ele>9.8</ele>
        <time>2021-10-22T04:51:46Z</time>
      </trkpt>
      <trkpt lat="49.39053" lon="1.02169">
        <ele>9.6</ele>
        <time>2021-10-22T04:51:48Z</time>
      </trkpt>
      <trkpt lat="49.39039" lon="1.02166">
        <ele>9.3</ele>
        <time>2021-10-22T04:51:50Z</time>
      </trkpt>
      <trkpt lat="49.39032" lon="1.02162">
        <ele>9.2</ele>
        <time>2021-10-22T04:51:51Z</time>
      </trkpt>
      <trkpt lat="49.39025" lon="1.02162">
        <ele>9</ele>
        <time>2021-10-22T04:51:52Z</time>
      </trkpt>
      <trkpt lat="49.39009" lon="1.0216">
        <ele>8.7</ele>
        <time>2021-10-22T04:51:54Z</time>
      </trkpt>
      <trkpt lat="49.38994" lon="1.02156">
        <ele>8.2</ele>
        <time>2021-10-22T04:51:56Z</time>
      </trkpt>
      <trkpt lat="49.38979" lon="1.02154">
        <ele>7.7</ele>
        <time>2021-10-22T04:51:58Z</time>
      </trkpt>
      <trkpt lat="49.38971" lon="1.02155">
        <ele>7.4</ele>
        <time>2021-10-22T04:51:59Z</time>
      </trkpt>
      <trkpt lat="49.38964" lon="1.02155">
        <ele>7.1</ele>
        <time>2021-10-22T04:52:00Z</time>
      </trkpt>
      <trkpt lat="49.38956" lon="1.02155">
        <ele>6.9</ele>
        <time>2021-10-22T04:52:01Z</time>
      </trkpt>
      <trkpt lat="49.3894" lon="1.0216">
        <ele>6.6</ele>
        <time>2021-10-22T04:52:03Z</time>
      </trkpt>
      <trkpt lat="49.38933" lon="1.02159">
        <ele>6.5</ele>
        <time>2021-10-22T04:52:04Z</time>
      </trkpt>
      <trkpt lat="49.38918" lon="1.0216">
        <ele>6.3</ele>
        <time>2021-10-22T04:52:06Z</time>
      </trkpt>
      <trkpt lat="49.3891" lon="1.02162">
        <ele>6.2</ele>
        <time>2021-10-22T04:52:07Z</time>
      </trkpt>
      <trkpt lat="49.38901" lon="1.02163">
        <ele>6.1</ele>
        <time>2021-10-22T04:52:08Z</time>
      </trkpt>
      <trkpt lat="49.38885" lon="1.02169">
        <ele>6.1</ele>
        <time>2021-10-22T04:52:10Z</time>
      </trkpt>
      <trkpt lat="49.38872" lon="1.02177">
        <ele>6.3</ele>
        <time>2021-10-22T04:52:12Z</time>
      </trkpt>
      <trkpt lat="49.3886" lon="1.02182">
        <ele>6.6</ele>
        <time>2021-10-22T04:52:14Z</time>
      </trkpt>
      <trkpt lat="49.38854" lon="1.02184">
        <ele>6.7</ele>
        <time>2021-10-22T04:52:15Z</time>
      </trkpt>
      <trkpt lat="49.38844" lon="1.02187">
        <ele>7</ele>
        <time>2021-10-22T04:52:17Z</time>
      </trkpt>
      <trkpt lat="49.38839" lon="1.0219">
        <ele>7.1</ele>
        <time>2021-10-22T04:52:18Z</time>
      </trkpt>
      <trkpt lat="49.38833" lon="1.02192">
        <ele>7.2</ele>
        <time>2021-10-22T04:52:19Z</time>
      </trkpt>
      <trkpt lat="49.38821" lon="1.02194">
        <ele>7.4</ele>
        <time>2021-10-22T04:52:21Z</time>
      </trkpt>
      <trkpt lat="49.3881" lon="1.02186">
        <ele>7.7</ele>
        <time>2021-10-22T04:52:23Z</time>
      </trkpt>
      <trkpt lat="49.38798" lon="1.0218">
        <ele>8.2</ele>
        <time>2021-10-22T04:52:25Z</time>
      </trkpt>
      <trkpt lat="49.38786" lon="1.02175">
        <ele>8.8</ele>
        <time>2021-10-22T04:52:27Z</time>
      </trkpt>
      <trkpt lat="49.38775" lon="1.0217">
        <ele>9.5</ele>
        <time>2021-10-22T04:52:29Z</time>
      </trkpt>
      <trkpt lat="49.3877" lon="1.02167">
        <ele>9.8</ele>
        <time>2021-10-22T04:52:30Z</time>
      </trkpt>
      <trkpt lat="49.3876" lon="1.02162">
        <ele>10.5</ele>
        <time>2021-10-22T04:52:32Z</time>
      </trkpt>
      <trkpt lat="49.38755" lon="1.0216">
        <ele>10.8</ele>
        <time>2021-10-22T04:52:33Z</time>
      </trkpt>
      <trkpt lat="49.38745" lon="1.02155">
        <ele>11.6</ele>
        <time>2021-10-22T04:52:35Z</time>
      </trkpt>
      <trkpt lat="49.38741" lon="1.02152">
        <ele>12</ele>
        <time>2021-10-22T04:52:36Z</time>
      </trkpt>
      <trkpt lat="49.38733" lon="1.02152">
        <ele>12.6</ele>
        <time>2021-10-22T04:52:38Z</time>
      </trkpt>
      <trkpt lat="49.38723" lon="1.02149">
        <ele>13.5</ele>
        <time>2021-10-22T04:52:40Z</time>
      </trkpt>
      <trkpt lat="49.38713" lon="1.02147">
        <ele>14.3</ele>
        <time>2021-10-22T04:52:42Z</time>
      </trkpt>
      <trkpt lat="49.38708" lon="1.02146">
        <ele>14.7</ele>
        <time>2021-10-22T04:52:43Z</time>
      </trkpt>
      <trkpt lat="49.38703" lon="1.02145">
        <ele>14.8</ele>
        <time>2021-10-22T04:52:44Z</time>
      </trkpt>
      <trkpt lat="49.38693" lon="1.02143">
        <ele>14.8</ele>
        <time>2021-10-22T04:52:46Z</time>
      </trkpt>
      <trkpt lat="49.38683" lon="1.02141">
        <ele>14.9</ele>
        <time>2021-10-22T04:52:48Z</time>
      </trkpt>
      <trkpt lat="49.38673" lon="1.02139">
        <ele>15</ele>
        <time>2021-10-22T04:52:50Z</time>
      </trkpt>
      <trkpt lat="49.38663" lon="1.02139">
        <ele>15.1</ele>
        <time>2021-10-22T04:52:52Z</time>
      </trkpt>
      <trkpt lat="49.38653" lon="1.0214">
        <ele>15.2</ele>
        <time>2021-10-22T04:52:54Z</time>
      </trkpt>
      <trkpt lat="49.38643" lon="1.02138">
        <ele>15.3</ele>
        <time>2021-10-22T04:52:56Z</time>
      </trkpt>
      <trkpt lat="49.38638" lon="1.02137">
        <ele>15.4</ele>
        <time>2021-10-22T04:52:57Z</time>
      </trkpt>
      <trkpt lat="49.38633" lon="1.02136">
        <ele>15.5</ele>
        <time>2021-10-22T04:52:58Z</time>
      </trkpt>
      <trkpt lat="49.38627" lon="1.02134">
        <ele>15.6</ele>
        <time>2021-10-22T04:52:59Z</time>
      </trkpt>
      <trkpt lat="49.38616" lon="1.02131">
        <ele>15.6</ele>
        <time>2021-10-22T04:53:01Z</time>
      </trkpt>
      <trkpt lat="49.38605" lon="1.02128">
        <ele>15.7</ele>
        <time>2021-10-22T04:53:03Z</time>
      </trkpt>
      <trkpt lat="49.386" lon="1.02126">
        <ele>15.7</ele>
        <time>2021-10-22T04:53:04Z</time>
      </trkpt>
      <trkpt lat="49.38595" lon="1.02126">
        <ele>15.7</ele>
        <time>2021-10-22T04:53:05Z</time>
      </trkpt>
      <trkpt lat="49.38589" lon="1.02125">
        <ele>15.7</ele>
        <time>2021-10-22T04:53:06Z</time>
      </trkpt>
      <trkpt lat="49.38577" lon="1.02123">
        <ele>15.8</ele>
        <time>2021-10-22T04:53:08Z</time>
      </trkpt>
      <trkpt lat="49.38566" lon="1.0212">
        <ele>15.9</ele>
        <time>2021-10-22T04:53:10Z</time>
      </trkpt>
      <trkpt lat="49.3856" lon="1.02118">
        <ele>15.9</ele>
        <time>2021-10-22T04:53:11Z</time>
      </trkpt>
      <trkpt lat="49.38549" lon="1.02114">
        <ele>16</ele>
        <time>2021-10-22T04:53:13Z</time>
      </trkpt>
      <trkpt lat="49.38543" lon="1.02112">
        <ele>16</ele>
        <time>2021-10-22T04:53:14Z</time>
      </trkpt>
      <trkpt lat="49.38537" lon="1.0211">
        <ele>16.1</ele>
        <time>2021-10-22T04:53:15Z</time>
      </trkpt>
      <trkpt lat="49.38532" lon="1.02108">
        <ele>16.1</ele>
        <time>2021-10-22T04:53:16Z</time>
      </trkpt>
      <trkpt lat="49.38526" lon="1.02106">
        <ele>16.2</ele>
        <time>2021-10-22T04:53:17Z</time>
      </trkpt>
      <trkpt lat="49.38515" lon="1.02103">
        <ele>16.2</ele>
        <time>2021-10-22T04:53:19Z</time>
      </trkpt>
      <trkpt lat="49.38504" lon="1.021">
        <ele>16.2</ele>
        <time>2021-10-22T04:53:21Z</time>
      </trkpt>
      <trkpt lat="49.38499" lon="1.02098">
        <ele>16.2</ele>
        <time>2021-10-22T04:53:22Z</time>
      </trkpt>
      <trkpt lat="49.38487" lon="1.02096">
        <ele>16.2</ele>
        <time>2021-10-22T04:53:24Z</time>
      </trkpt>
      <trkpt lat="49.38477" lon="1.02094">
        <ele>16.2</ele>
        <time>2021-10-22T04:53:26Z</time>
      </trkpt>
      <trkpt lat="49.38467" lon="1.02098">
        <ele>16.3</ele>
        <time>2021-10-22T04:53:28Z</time>
      </trkpt>
      <trkpt lat="49.38459" lon="1.02107">
        <ele>16.5</ele>
        <time>2021-10-22T04:53:30Z</time>
      </trkpt>
      <trkpt lat="49.38457" lon="1.02111">
        <ele>16.5</ele>
        <time>2021-10-22T04:53:31Z</time>
      </trkpt>
      <trkpt lat="49.38453" lon="1.02113">
        <ele>16.7</ele>
        <time>2021-10-22T04:53:32Z</time>
      </trkpt>
      <trkpt lat="49.38447" lon="1.02115">
        <ele>16.8</ele>
        <time>2021-10-22T04:53:33Z</time>
      </trkpt>
      <trkpt lat="49.38435" lon="1.02114">
        <ele>17.3</ele>
        <time>2021-10-22T04:53:35Z</time>
      </trkpt>
      <trkpt lat="49.3843" lon="1.02114">
        <ele>17.4</ele>
        <time>2021-10-22T04:53:36Z</time>
      </trkpt>
      <trkpt lat="49.3842" lon="1.02121">
        <ele>17.6</ele>
        <time>2021-10-22T04:53:38Z</time>
      </trkpt>
      <trkpt lat="49.38415" lon="1.02125">
        <ele>17.7</ele>
        <time>2021-10-22T04:53:39Z</time>
      </trkpt>
      <trkpt lat="49.38409" lon="1.02127">
        <ele>17.8</ele>
        <time>2021-10-22T04:53:40Z</time>
      </trkpt>
      <trkpt lat="49.38398" lon="1.02123">
        <ele>17.7</ele>
        <time>2021-10-22T04:53:42Z</time>
      </trkpt>
      <trkpt lat="49.38385" lon="1.02118">
        <ele>17.6</ele>
        <time>2021-10-22T04:53:44Z</time>
      </trkpt>
      <trkpt lat="49.38379" lon="1.02114">
        <ele>17.5</ele>
        <time>2021-10-22T04:53:45Z</time>
      </trkpt>
      <trkpt lat="49.38367" lon="1.0211">
        <ele>17.4</ele>
        <time>2021-10-22T04:53:47Z</time>
      </trkpt>
      <trkpt lat="49.3836" lon="1.02109">
        <ele>17.4</ele>
        <time>2021-10-22T04:53:48Z</time>
      </trkpt>
      <trkpt lat="49.38349" lon="1.02104">
        <ele>17.2</ele>
        <time>2021-10-22T04:53:50Z</time>
      </trkpt>
      <trkpt lat="49.38343" lon="1.02099">
        <ele>17.2</ele>
        <time>2021-10-22T04:53:51Z</time>
      </trkpt>
      <trkpt lat="49.38335" lon="1.02087">
        <ele>17.1</ele>
        <time>2021-10-22T04:53:53Z</time>
      </trkpt>
      <trkpt lat="49.3833" lon="1.02083">
        <ele>17</ele>
        <time>2021-10-22T04:53:54Z</time>
      </trkpt>
      <trkpt lat="49.38318" lon="1.02079">
        <ele>16.9</ele>
        <time>2021-10-22T04:53:56Z</time>
      </trkpt>
      <trkpt lat="49.38312" lon="1.02078">
        <ele>16.9</ele>
        <time>2021-10-22T04:53:57Z</time>
      </trkpt>
      <trkpt lat="49.383" lon="1.02076">
        <ele>16.8</ele>
        <time>2021-10-22T04:53:59Z</time>
      </trkpt>
      <trkpt lat="49.38294" lon="1.02075">
        <ele>16.7</ele>
        <time>2021-10-22T04:54:00Z</time>
      </trkpt>
      <trkpt lat="49.38287" lon="1.02074">
        <ele>16.7</ele>
        <time>2021-10-22T04:54:01Z</time>
      </trkpt>
      <trkpt lat="49.38275" lon="1.02071">
        <ele>16.6</ele>
        <time>2021-10-22T04:54:03Z</time>
      </trkpt>
      <trkpt lat="49.38269" lon="1.02069">
        <ele>16.6</ele>
        <time>2021-10-22T04:54:04Z</time>
      </trkpt>
      <trkpt lat="49.38257" lon="1.02064">
        <ele>16.5</ele>
        <time>2021-10-22T04:54:06Z</time>
      </trkpt>
      <trkpt lat="49.38251" lon="1.02061">
        <ele>16.4</ele>
        <time>2021-10-22T04:54:07Z</time>
      </trkpt>
      <trkpt lat="49.38239" lon="1.02057">
        <ele>16.3</ele>
        <time>2021-10-22T04:54:09Z</time>
      </trkpt>
      <trkpt lat="49.38233" lon="1.02055">
        <ele>16.3</ele>
        <time>2021-10-22T04:54:10Z</time>
      </trkpt>
      <trkpt lat="49.3822" lon="1.02051">
        <ele>16.2</ele>
        <time>2021-10-22T04:54:12Z</time>
      </trkpt>
      <trkpt lat="49.38208" lon="1.02045">
        <ele>16.2</ele>
        <time>2021-10-22T04:54:14Z</time>
      </trkpt>
      <trkpt lat="49.38197" lon="1.0204">
        <ele>16</ele>
        <time>2021-10-22T04:54:16Z</time>
      </trkpt>
      <trkpt lat="49.3819" lon="1.02037">
        <ele>16</ele>
        <time>2021-10-22T04:54:17Z</time>
      </trkpt>
      <trkpt lat="49.38177" lon="1.02033">
        <ele>15.9</ele>
        <time>2021-10-22T04:54:19Z</time>
      </trkpt>
      <trkpt lat="49.38164" lon="1.02029">
        <ele>15.8</ele>
        <time>2021-10-22T04:54:21Z</time>
      </trkpt>
      <trkpt lat="49.38151" lon="1.02025">
        <ele>15.6</ele>
        <time>2021-10-22T04:54:23Z</time>
      </trkpt>
      <trkpt lat="49.38144" lon="1.02023">
        <ele>15.6</ele>
        <time>2021-10-22T04:54:24Z</time>
      </trkpt>
      <trkpt lat="49.38138" lon="1.02021">
        <ele>15.5</ele>
        <time>2021-10-22T04:54:25Z</time>
      </trkpt>
      <trkpt lat="49.38131" lon="1.02019">
        <ele>15.4</ele>
        <time>2021-10-22T04:54:26Z</time>
      </trkpt>
      <trkpt lat="49.38118" lon="1.02013">
        <ele>15.3</ele>
        <time>2021-10-22T04:54:28Z</time>
      </trkpt>
      <trkpt lat="49.38105" lon="1.02007">
        <ele>15.1</ele>
        <time>2021-10-22T04:54:30Z</time>
      </trkpt>
      <trkpt lat="49.38098" lon="1.02005">
        <ele>15</ele>
        <time>2021-10-22T04:54:31Z</time>
      </trkpt>
      <trkpt lat="49.38084" lon="1.02">
        <ele>14.9</ele>
        <time>2021-10-22T04:54:33Z</time>
      </trkpt>
      <trkpt lat="49.38071" lon="1.01994">
        <ele>14.8</ele>
        <time>2021-10-22T04:54:35Z</time>
      </trkpt>
      <trkpt lat="49.38058" lon="1.01989">
        <ele>14.7</ele>
        <time>2021-10-22T04:54:37Z</time>
      </trkpt>
      <trkpt lat="49.38051" lon="1.01986">
        <ele>14.6</ele>
        <time>2021-10-22T04:54:38Z</time>
      </trkpt>
      <trkpt lat="49.38044" lon="1.01983">
        <ele>14.6</ele>
        <time>2021-10-22T04:54:39Z</time>
      </trkpt>
      <trkpt lat="49.38031" lon="1.01978">
        <ele>14.6</ele>
        <time>2021-10-22T04:54:41Z</time>
      </trkpt>
      <trkpt lat="49.38018" lon="1.01974">
        <ele>14.4</ele>
        <time>2021-10-22T04:54:43Z</time>
      </trkpt>
      <trkpt lat="49.38012" lon="1.01972">
        <ele>14.4</ele>
        <time>2021-10-22T04:54:44Z</time>
      </trkpt>
      <trkpt lat="49.37998" lon="1.01967">
        <ele>14.3</ele>
        <time>2021-10-22T04:54:46Z</time>
      </trkpt>
      <trkpt lat="49.37985" lon="1.01963">
        <ele>14.2</ele>
        <time>2021-10-22T04:54:48Z</time>
      </trkpt>
      <trkpt lat="49.37978" lon="1.0196">
        <ele>14.2</ele>
        <time>2021-10-22T04:54:49Z</time>
      </trkpt>
      <trkpt lat="49.37965" lon="1.01955">
        <ele>14.2</ele>
        <time>2021-10-22T04:54:51Z</time>
      </trkpt>
      <trkpt lat="49.37959" lon="1.01953">
        <ele>14.2</ele>
        <time>2021-10-22T04:54:52Z</time>
      </trkpt>
      <trkpt lat="49.37953" lon="1.0195">
        <ele>14.2</ele>
        <time>2021-10-22T04:54:53Z</time>
      </trkpt>
      <trkpt lat="49.3794" lon="1.01946">
        <ele>14.3</ele>
        <time>2021-10-22T04:54:55Z</time>
      </trkpt>
      <trkpt lat="49.37934" lon="1.01943">
        <ele>14.3</ele>
        <time>2021-10-22T04:54:56Z</time>
      </trkpt>
      <trkpt lat="49.37921" lon="1.0194">
        <ele>14.4</ele>
        <time>2021-10-22T04:54:58Z</time>
      </trkpt>
      <trkpt lat="49.37914" lon="1.01937">
        <ele>14.5</ele>
        <time>2021-10-22T04:54:59Z</time>
      </trkpt>
      <trkpt lat="49.37902" lon="1.01932">
        <ele>14.6</ele>
        <time>2021-10-22T04:55:01Z</time>
      </trkpt>
      <trkpt lat="49.37896" lon="1.01929">
        <ele>14.7</ele>
        <time>2021-10-22T04:55:02Z</time>
      </trkpt>
      <trkpt lat="49.3789" lon="1.01926">
        <ele>14.7</ele>
        <time>2021-10-22T04:55:03Z</time>
      </trkpt>
      <trkpt lat="49.37878" lon="1.01921">
        <ele>14.8</ele>
        <time>2021-10-22T04:55:05Z</time>
      </trkpt>
      <trkpt lat="49.37872" lon="1.01918">
        <ele>14.9</ele>
        <time>2021-10-22T04:55:06Z</time>
      </trkpt>
      <trkpt lat="49.3786" lon="1.01913">
        <ele>14.9</ele>
        <time>2021-10-22T04:55:08Z</time>
      </trkpt>
      <trkpt lat="49.37847" lon="1.01907">
        <ele>15</ele>
        <time>2021-10-22T04:55:10Z</time>
      </trkpt>
      <trkpt lat="49.37835" lon="1.01901">
        <ele>15</ele>
        <time>2021-10-22T04:55:12Z</time>
      </trkpt>
      <trkpt lat="49.37829" lon="1.01899">
        <ele>15</ele>
        <time>2021-10-22T04:55:13Z</time>
      </trkpt>
      <trkpt lat="49.37817" lon="1.01893">
        <ele>15</ele>
        <time>2021-10-22T04:55:15Z</time>
      </trkpt>
      <trkpt lat="49.37811" lon="1.0189">
        <ele>15</ele>
        <time>2021-10-22T04:55:16Z</time>
      </trkpt>
      <trkpt lat="49.37799" lon="1.01884">
        <ele>14.8</ele>
        <time>2021-10-22T04:55:18Z</time>
      </trkpt>
      <trkpt lat="49.37792" lon="1.0188">
        <ele>14.8</ele>
        <time>2021-10-22T04:55:19Z</time>
      </trkpt>
      <trkpt lat="49.37786" lon="1.01877">
        <ele>14.7</ele>
        <time>2021-10-22T04:55:20Z</time>
      </trkpt>
      <trkpt lat="49.37773" lon="1.01872">
        <ele>14.6</ele>
        <time>2021-10-22T04:55:22Z</time>
      </trkpt>
      <trkpt lat="49.37766" lon="1.01871">
        <ele>14.5</ele>
        <time>2021-10-22T04:55:23Z</time>
      </trkpt>
      <trkpt lat="49.37753" lon="1.01867">
        <ele>14.4</ele>
        <time>2021-10-22T04:55:25Z</time>
      </trkpt>
      <trkpt lat="49.3774" lon="1.01863">
        <ele>14.3</ele>
        <time>2021-10-22T04:55:27Z</time>
      </trkpt>
      <trkpt lat="49.37733" lon="1.01861">
        <ele>14.2</ele>
        <time>2021-10-22T04:55:28Z</time>
      </trkpt>
      <trkpt lat="49.37727" lon="1.01858">
        <ele>14.1</ele>
        <time>2021-10-22T04:55:29Z</time>
      </trkpt>
      <trkpt lat="49.37714" lon="1.01853">
        <ele>13.9</ele>
        <time>2021-10-22T04:55:31Z</time>
      </trkpt>
      <trkpt lat="49.37708" lon="1.01851">
        <ele>13.8</ele>
        <time>2021-10-22T04:55:32Z</time>
      </trkpt>
      <trkpt lat="49.37696" lon="1.01845">
        <ele>13.6</ele>
        <time>2021-10-22T04:55:34Z</time>
      </trkpt>
      <trkpt lat="49.3769" lon="1.01843">
        <ele>13.5</ele>
        <time>2021-10-22T04:55:35Z</time>
      </trkpt>
      <trkpt lat="49.37683" lon="1.0184">
        <ele>13.4</ele>
        <time>2021-10-22T04:55:36Z</time>
      </trkpt>
      <trkpt lat="49.37671" lon="1.01834">
        <ele>13.3</ele>
        <time>2021-10-22T04:55:38Z</time>
      </trkpt>
      <trkpt lat="49.37658" lon="1.0183">
        <ele>13.1</ele>
        <time>2021-10-22T04:55:40Z</time>
      </trkpt>
      <trkpt lat="49.37644" lon="1.01826">
        <ele>13</ele>
        <time>2021-10-22T04:55:42Z</time>
      </trkpt>
      <trkpt lat="49.37631" lon="1.01822">
        <ele>12.9</ele>
        <time>2021-10-22T04:55:44Z</time>
      </trkpt>
      <trkpt lat="49.37618" lon="1.01818">
        <ele>12.8</ele>
        <time>2021-10-22T04:55:46Z</time>
      </trkpt>
      <trkpt lat="49.37611" lon="1.01816">
        <ele>12.8</ele>
        <time>2021-10-22T04:55:47Z</time>
      </trkpt>
      <trkpt lat="49.37598" lon="1.01811">
        <ele>12.7</ele>
        <time>2021-10-22T04:55:49Z</time>
      </trkpt>
      <trkpt lat="49.37592" lon="1.01808">
        <ele>12.7</ele>
        <time>2021-10-22T04:55:50Z</time>
      </trkpt>
      <trkpt lat="49.37578" lon="1.01803">
        <ele>12.7</ele>
        <time>2021-10-22T04:55:52Z</time>
      </trkpt>
      <trkpt lat="49.37572" lon="1.01799">
        <ele>12.7</ele>
        <time>2021-10-22T04:55:53Z</time>
      </trkpt>
      <trkpt lat="49.37566" lon="1.01797">
        <ele>12.7</ele>
        <time>2021-10-22T04:55:54Z</time>
      </trkpt>
      <trkpt lat="49.37552" lon="1.01793">
        <ele>12.8</ele>
        <time>2021-10-22T04:55:56Z</time>
      </trkpt>
      <trkpt lat="49.3754" lon="1.01789">
        <ele>12.8</ele>
        <time>2021-10-22T04:55:58Z</time>
      </trkpt>
      <trkpt lat="49.37533" lon="1.01786">
        <ele>12.9</ele>
        <time>2021-10-22T04:55:59Z</time>
      </trkpt>
      <trkpt lat="49.37527" lon="1.01783">
        <ele>12.9</ele>
        <time>2021-10-22T04:56:00Z</time>
      </trkpt>
      <trkpt lat="49.37521" lon="1.01781">
        <ele>13</ele>
        <time>2021-10-22T04:56:01Z</time>
      </trkpt>
      <trkpt lat="49.37509" lon="1.01775">
        <ele>13</ele>
        <time>2021-10-22T04:56:03Z</time>
      </trkpt>
      <trkpt lat="49.37496" lon="1.0177">
        <ele>13.1</ele>
        <time>2021-10-22T04:56:05Z</time>
      </trkpt>
      <trkpt lat="49.37484" lon="1.01766">
        <ele>13.2</ele>
        <time>2021-10-22T04:56:07Z</time>
      </trkpt>
      <trkpt lat="49.37478" lon="1.01764">
        <ele>13.2</ele>
        <time>2021-10-22T04:56:08Z</time>
      </trkpt>
      <trkpt lat="49.37472" lon="1.01762">
        <ele>13.3</ele>
        <time>2021-10-22T04:56:09Z</time>
      </trkpt>
      <trkpt lat="49.3746" lon="1.01757">
        <ele>13.4</ele>
        <time>2021-10-22T04:56:11Z</time>
      </trkpt>
      <trkpt lat="49.37454" lon="1.01754">
        <ele>13.5</ele>
        <time>2021-10-22T04:56:12Z</time>
      </trkpt>
      <trkpt lat="49.37448" lon="1.01751">
        <ele>13.5</ele>
        <time>2021-10-22T04:56:13Z</time>
      </trkpt>
      <trkpt lat="49.37435" lon="1.01746">
        <ele>13.6</ele>
        <time>2021-10-22T04:56:15Z</time>
      </trkpt>
      <trkpt lat="49.37423" lon="1.0174">
        <ele>13.7</ele>
        <time>2021-10-22T04:56:17Z</time>
      </trkpt>
      <trkpt lat="49.37411" lon="1.01734">
        <ele>13.8</ele>
        <time>2021-10-22T04:56:19Z</time>
      </trkpt>
      <trkpt lat="49.37405" lon="1.01731">
        <ele>13.8</ele>
        <time>2021-10-22T04:56:20Z</time>
      </trkpt>
      <trkpt lat="49.37399" lon="1.01728">
        <ele>13.9</ele>
        <time>2021-10-22T04:56:21Z</time>
      </trkpt>
      <trkpt lat="49.37387" lon="1.01722">
        <ele>13.9</ele>
        <time>2021-10-22T04:56:23Z</time>
      </trkpt>
      <trkpt lat="49.37381" lon="1.0172">
        <ele>14</ele>
        <time>2021-10-22T04:56:24Z</time>
      </trkpt>
      <trkpt lat="49.37369" lon="1.01716">
        <ele>14</ele>
        <time>2021-10-22T04:56:26Z</time>
      </trkpt>
      <trkpt lat="49.37363" lon="1.01714">
        <ele>14</ele>
        <time>2021-10-22T04:56:27Z</time>
      </trkpt>
      <trkpt lat="49.37357" lon="1.01712">
        <ele>14.1</ele>
        <time>2021-10-22T04:56:28Z</time>
      </trkpt>
      <trkpt lat="49.37345" lon="1.01707">
        <ele>14.2</ele>
        <time>2021-10-22T04:56:30Z</time>
      </trkpt>
      <trkpt lat="49.37333" lon="1.01703">
        <ele>14.3</ele>
        <time>2021-10-22T04:56:32Z</time>
      </trkpt>
      <trkpt lat="49.37327" lon="1.01701">
        <ele>14.3</ele>
        <time>2021-10-22T04:56:33Z</time>
      </trkpt>
      <trkpt lat="49.37316" lon="1.01696">
        <ele>14.4</ele>
        <time>2021-10-22T04:56:35Z</time>
      </trkpt>
      <trkpt lat="49.3731" lon="1.01693">
        <ele>14.5</ele>
        <time>2021-10-22T04:56:36Z</time>
      </trkpt>
      <trkpt lat="49.37298" lon="1.0169">
        <ele>14.5</ele>
        <time>2021-10-22T04:56:38Z</time>
      </trkpt>
      <trkpt lat="49.37292" lon="1.01687">
        <ele>14.6</ele>
        <time>2021-10-22T04:56:39Z</time>
      </trkpt>
      <trkpt lat="49.3728" lon="1.01682">
        <ele>14.7</ele>
        <time>2021-10-22T04:56:41Z</time>
      </trkpt>
      <trkpt lat="49.37274" lon="1.0168">
        <ele>14.7</ele>
        <time>2021-10-22T04:56:42Z</time>
      </trkpt>
      <trkpt lat="49.37268" lon="1.01677">
        <ele>14.9</ele>
        <time>2021-10-22T04:56:43Z</time>
      </trkpt>
      <trkpt lat="49.37256" lon="1.01671">
        <ele>15</ele>
        <time>2021-10-22T04:56:45Z</time>
      </trkpt>
      <trkpt lat="49.3725" lon="1.01669">
        <ele>15.1</ele>
        <time>2021-10-22T04:56:46Z</time>
      </trkpt>
      <trkpt lat="49.37238" lon="1.01664">
        <ele>15.2</ele>
        <time>2021-10-22T04:56:48Z</time>
      </trkpt>
      <trkpt lat="49.37226" lon="1.01659">
        <ele>15.4</ele>
        <time>2021-10-22T04:56:50Z</time>
      </trkpt>
      <trkpt lat="49.37214" lon="1.01656">
        <ele>15.5</ele>
        <time>2021-10-22T04:56:52Z</time>
      </trkpt>
      <trkpt lat="49.37203" lon="1.01651">
        <ele>15.6</ele>
        <time>2021-10-22T04:56:54Z</time>
      </trkpt>
      <trkpt lat="49.37197" lon="1.01649">
        <ele>15.7</ele>
        <time>2021-10-22T04:56:55Z</time>
      </trkpt>
      <trkpt lat="49.37185" lon="1.01643">
        <ele>15.8</ele>
        <time>2021-10-22T04:56:57Z</time>
      </trkpt>
      <trkpt lat="49.37179" lon="1.01641">
        <ele>15.9</ele>
        <time>2021-10-22T04:56:58Z</time>
      </trkpt>
      <trkpt lat="49.37167" lon="1.01636">
        <ele>15.9</ele>
        <time>2021-10-22T04:57:00Z</time>
      </trkpt>
      <trkpt lat="49.37161" lon="1.01633">
        <ele>16</ele>
        <time>2021-10-22T04:57:01Z</time>
      </trkpt>
      <trkpt lat="49.37149" lon="1.01627">
        <ele>16</ele>
        <time>2021-10-22T04:57:03Z</time>
      </trkpt>
      <trkpt lat="49.37143" lon="1.01625">
        <ele>16.1</ele>
        <time>2021-10-22T04:57:04Z</time>
      </trkpt>
      <trkpt lat="49.37131" lon="1.0162">
        <ele>16.1</ele>
        <time>2021-10-22T04:57:06Z</time>
      </trkpt>
      <trkpt lat="49.37125" lon="1.01617">
        <ele>16.1</ele>
        <time>2021-10-22T04:57:07Z</time>
      </trkpt>
      <trkpt lat="49.37114" lon="1.01612">
        <ele>16.1</ele>
        <time>2021-10-22T04:57:09Z</time>
      </trkpt>
      <trkpt lat="49.37102" lon="1.01609">
        <ele>16</ele>
        <time>2021-10-22T04:57:11Z</time>
      </trkpt>
      <trkpt lat="49.37096" lon="1.01607">
        <ele>16</ele>
        <time>2021-10-22T04:57:12Z</time>
      </trkpt>
      <trkpt lat="49.37085" lon="1.01602">
        <ele>16</ele>
        <time>2021-10-22T04:57:14Z</time>
      </trkpt>
      <trkpt lat="49.37074" lon="1.01598">
        <ele>15.9</ele>
        <time>2021-10-22T04:57:16Z</time>
      </trkpt>
      <trkpt lat="49.37064" lon="1.01591">
        <ele>15.9</ele>
        <time>2021-10-22T04:57:18Z</time>
      </trkpt>
      <trkpt lat="49.37059" lon="1.01575">
        <ele>14.1</ele>
        <time>2021-10-22T04:57:20Z</time>
      </trkpt>
      <trkpt lat="49.37059" lon="1.01559">
        <ele>12.4</ele>
        <time>2021-10-22T04:57:22Z</time>
      </trkpt>
      <trkpt lat="49.37064" lon="1.01547">
        <ele>10.8</ele>
        <time>2021-10-22T04:57:24Z</time>
      </trkpt>
      <trkpt lat="49.37073" lon="1.01539">
        <ele>10.8</ele>
        <time>2021-10-22T04:57:26Z</time>
      </trkpt>
      <trkpt lat="49.37078" lon="1.01538">
        <ele>11.1</ele>
        <time>2021-10-22T04:57:27Z</time>
      </trkpt>
      <trkpt lat="49.37087" lon="1.01543">
        <ele>11.4</ele>
        <time>2021-10-22T04:57:29Z</time>
      </trkpt>
      <trkpt lat="49.37093" lon="1.01546">
        <ele>11.5</ele>
        <time>2021-10-22T04:57:30Z</time>
      </trkpt>
      <trkpt lat="49.37103" lon="1.01553">
        <ele>11.5</ele>
        <time>2021-10-22T04:57:32Z</time>
      </trkpt>
      <trkpt lat="49.37114" lon="1.01559">
        <ele>11.6</ele>
        <time>2021-10-22T04:57:34Z</time>
      </trkpt>
      <trkpt lat="49.37125" lon="1.01566">
        <ele>12.5</ele>
        <time>2021-10-22T04:57:36Z</time>
      </trkpt>
      <trkpt lat="49.37136" lon="1.01571">
        <ele>12.4</ele>
        <time>2021-10-22T04:57:38Z</time>
      </trkpt>
      <trkpt lat="49.37147" lon="1.01576">
        <ele>12.3</ele>
        <time>2021-10-22T04:57:40Z</time>
      </trkpt>
      <trkpt lat="49.37159" lon="1.01581">
        <ele>12.6</ele>
        <time>2021-10-22T04:57:42Z</time>
      </trkpt>
      <trkpt lat="49.37172" lon="1.01585">
        <ele>12.5</ele>
        <time>2021-10-22T04:57:44Z</time>
      </trkpt>
      <trkpt lat="49.37178" lon="1.01588">
        <ele>12.5</ele>
        <time>2021-10-22T04:57:45Z</time>
      </trkpt>
      <trkpt lat="49.37192" lon="1.01592">
        <ele>12.7</ele>
        <time>2021-10-22T04:57:47Z</time>
      </trkpt>
      <trkpt lat="49.37205" lon="1.01598">
        <ele>12.7</ele>
        <time>2021-10-22T04:57:49Z</time>
      </trkpt>
      <trkpt lat="49.37218" lon="1.01603">
        <ele>12.2</ele>
        <time>2021-10-22T04:57:51Z</time>
      </trkpt>
      <trkpt lat="49.37224" lon="1.01606">
        <ele>12.2</ele>
        <time>2021-10-22T04:57:52Z</time>
      </trkpt>
      <trkpt lat="49.37237" lon="1.01611">
        <ele>12.3</ele>
        <time>2021-10-22T04:57:54Z</time>
      </trkpt>
      <trkpt lat="49.37244" lon="1.01614">
        <ele>12.2</ele>
        <time>2021-10-22T04:57:55Z</time>
      </trkpt>
      <trkpt lat="49.37257" lon="1.01619">
        <ele>11.5</ele>
        <time>2021-10-22T04:57:57Z</time>
      </trkpt>
      <trkpt lat="49.37263" lon="1.01622">
        <ele>11.3</ele>
        <time>2021-10-22T04:57:58Z</time>
      </trkpt>
      <trkpt lat="49.3727" lon="1.01624">
        <ele>11.1</ele>
        <time>2021-10-22T04:57:59Z</time>
      </trkpt>
      <trkpt lat="49.37277" lon="1.01627">
        <ele>10.9</ele>
        <time>2021-10-22T04:58:00Z</time>
      </trkpt>
      <trkpt lat="49.3729" lon="1.01633">
        <ele>10.5</ele>
        <time>2021-10-22T04:58:02Z</time>
      </trkpt>
      <trkpt lat="49.37303" lon="1.01638">
        <ele>9.6</ele>
        <time>2021-10-22T04:58:04Z</time>
      </trkpt>
      <trkpt lat="49.37309" lon="1.0164">
        <ele>9.5</ele>
        <time>2021-10-22T04:58:05Z</time>
      </trkpt>
      <trkpt lat="49.37322" lon="1.01644">
        <ele>10.1</ele>
        <time>2021-10-22T04:58:07Z</time>
      </trkpt>
      <trkpt lat="49.37335" lon="1.01649">
        <ele>10.3</ele>
        <time>2021-10-22T04:58:09Z</time>
      </trkpt>
      <trkpt lat="49.37341" lon="1.01652">
        <ele>10.4</ele>
        <time>2021-10-22T04:58:10Z</time>
      </trkpt>
      <trkpt lat="49.37348" lon="1.01655">
        <ele>10.6</ele>
        <time>2021-10-22T04:58:11Z</time>
      </trkpt>
      <trkpt lat="49.37354" lon="1.01658">
        <ele>11</ele>
        <time>2021-10-22T04:58:12Z</time>
      </trkpt>
      <trkpt lat="49.37366" lon="1.01664">
        <ele>11.2</ele>
        <time>2021-10-22T04:58:14Z</time>
      </trkpt>
      <trkpt lat="49.37372" lon="1.01667">
        <ele>11.2</ele>
        <time>2021-10-22T04:58:15Z</time>
      </trkpt>
      <trkpt lat="49.37382" lon="1.01672">
        <ele>11.2</ele>
        <time>2021-10-22T04:58:17Z</time>
      </trkpt>
      <trkpt lat="49.37389" lon="1.01674">
        <ele>11.2</ele>
        <time>2021-10-22T04:58:19Z</time>
      </trkpt>
      <trkpt lat="49.37395" lon="1.01676">
        <ele>11.2</ele>
        <time>2021-10-22T04:58:21Z</time>
      </trkpt>
      <trkpt lat="49.37399" lon="1.01679">
        <ele>11.2</ele>
        <time>2021-10-22T04:58:23Z</time>
      </trkpt>
    </trkseg>
  </trk>
</gpx>